SWR160 LSZH-RJAA
Flight info
| Callsign | SWR160 |
|---|---|
| Flight time | N/A |
| Altitude | 31000 |
| Route | DEGES Z2 UMVEG DCT DIMLO DCT INVED DCT BALBI DCT DINRO DCT UDROS UM859 KARDE/N0491F330 UN644 ROLIN DCT TETRO DCT BARAD M747 LIMTI N161 GASBI/K0913F330 N161 MADEV/K0895F350 N161 SARIN/K0893S1070 A368 FKG W188 GOVSA W66 DKO W69 HUR B339 LADIX W34 PAMRU/K0909S1130 W34 VAPGU W100 ORAVA W201 UNSEK A326 DONVO G597 AGAVO/N0484F370 Y644 EGOBA Y697 LANAT Y51 SAMON Y517 ESKAS Y303 ENTAK/N0484F380 Y30 SWAMP |
| Aircraft | B77W/H-SDE1E2E3FGHIJ2J3J4J5M1RWXY/LB1D1 |
Departure
| Time | N/A |
|---|---|
| Airport | Zürich Airport (LSZH) |
Arrival
| Time | 2026-05-07 09:45 |
|---|---|
| Airport | Narita International Airport (RJAA) |
| Time | Latitude | Longitude | Altitude | Speed | Heading |
|---|---|---|---|---|---|
| 2026-05-06 23:52 | 41.96704 | 36.64365 | 31155 ft | 473 kts | 100° |
| 2026-05-06 23:52 | 41.96031 | 36.68693 | 31154 ft | 473 kts | 100° |
| 2026-05-06 23:52 | 41.94681 | 36.77348 | 31158 ft | 473 kts | 100° |
| 2026-05-06 23:53 | 41.93323 | 36.86006 | 31163 ft | 473 kts | 100° |
| 2026-05-06 23:53 | 41.91960 | 36.94656 | 31165 ft | 473 kts | 100° |
| 2026-05-06 23:54 | 41.90627 | 37.03365 | 31159 ft | 473 kts | 97° |
| 2026-05-06 23:54 | 41.90232 | 37.12136 | 31171 ft | 470 kts | 89° |
| 2026-05-06 23:55 | 41.90170 | 37.20915 | 31161 ft | 470 kts | 89° |
| 2026-05-06 23:55 | 41.90039 | 37.29644 | 31164 ft | 470 kts | 90° |
| 2026-05-06 23:56 | 41.89889 | 37.38479 | 31164 ft | 470 kts | 90° |
| 2026-05-06 23:56 | 41.89737 | 37.47300 | 31518 ft | 473 kts | 90° |
| 2026-05-06 23:57 | 41.89660 | 37.51715 | 31793 ft | 474 kts | 90° |
| 2026-05-06 23:57 | 41.89581 | 37.56138 | 32050 ft | 474 kts | 90° |
| 2026-05-06 23:57 | 41.89501 | 37.60567 | 32278 ft | 475 kts | 90° |
| 2026-05-06 23:57 | 41.89418 | 37.65015 | 32498 ft | 477 kts | 90° |
| 2026-05-06 23:58 | 41.89334 | 37.69462 | 32715 ft | 478 kts | 90° |
| 2026-05-06 23:58 | 41.89248 | 37.73914 | 32935 ft | 479 kts | 90° |
| 2026-05-06 23:58 | 41.89160 | 37.78387 | 33082 ft | 480 kts | 90° |
| 2026-05-06 23:58 | 41.89069 | 37.82875 | 33126 ft | 482 kts | 90° |
| 2026-05-06 23:59 | 41.88883 | 37.91869 | 33160 ft | 481 kts | 90° |
| 2026-05-06 23:59 | 41.88690 | 38.00831 | 33167 ft | 479 kts | 90° |
| 2026-05-07 00:00 | 41.88492 | 38.09710 | 33171 ft | 478 kts | 91° |
| 2026-05-07 00:00 | 41.88286 | 38.18637 | 33177 ft | 479 kts | 91° |
| 2026-05-07 00:01 | 41.88072 | 38.27627 | 33176 ft | 479 kts | 91° |
| 2026-05-07 00:01 | 41.87852 | 38.36579 | 33177 ft | 480 kts | 91° |
| 2026-05-07 00:02 | 41.87624 | 38.45545 | 33167 ft | 482 kts | 91° |
| 2026-05-07 00:02 | 41.87389 | 38.54541 | 33168 ft | 483 kts | 91° |
| 2026-05-07 00:03 | 41.87148 | 38.63496 | 33177 ft | 483 kts | 91° |
| 2026-05-07 00:03 | 41.86898 | 38.72518 | 33178 ft | 484 kts | 91° |
| 2026-05-07 00:04 | 41.86638 | 38.81603 | 33169 ft | 484 kts | 91° |
| 2026-05-07 00:04 | 41.86374 | 38.90627 | 33169 ft | 484 kts | 92° |
| 2026-05-07 00:05 | 41.86103 | 38.99646 | 33165 ft | 484 kts | 92° |
| 2026-05-07 00:05 | 41.85824 | 39.08663 | 33166 ft | 484 kts | 92° |
| 2026-05-07 00:06 | 41.85539 | 39.17671 | 33165 ft | 483 kts | 92° |
| 2026-05-07 00:06 | 41.85247 | 39.26681 | 33166 ft | 484 kts | 92° |
| 2026-05-07 00:07 | 41.84948 | 39.35691 | 33167 ft | 484 kts | 92° |
| 2026-05-07 00:07 | 41.84643 | 39.44704 | 33168 ft | 484 kts | 92° |
| 2026-05-07 00:08 | 41.84330 | 39.53738 | 33167 ft | 484 kts | 92° |
| 2026-05-07 00:08 | 41.84021 | 39.62765 | 33167 ft | 485 kts | 92° |
| 2026-05-07 00:09 | 41.83709 | 39.71795 | 33165 ft | 485 kts | 92° |
| 2026-05-07 00:09 | 41.83389 | 39.80829 | 33167 ft | 485 kts | 92° |
| 2026-05-07 00:10 | 41.83060 | 39.89876 | 33168 ft | 486 kts | 92° |
| 2026-05-07 00:10 | 41.82724 | 39.98923 | 33170 ft | 486 kts | 93° |
| 2026-05-07 00:11 | 41.82382 | 40.07981 | 33172 ft | 486 kts | 93° |
| 2026-05-07 00:11 | 41.82027 | 40.17044 | 33170 ft | 487 kts | 93° |
| 2026-05-07 00:12 | 41.81643 | 40.26108 | 33170 ft | 487 kts | 93° |
| 2026-05-07 00:12 | 41.81251 | 40.35177 | 33167 ft | 488 kts | 94° |
| 2026-05-07 00:13 | 41.80855 | 40.44262 | 33168 ft | 488 kts | 94° |
| 2026-05-07 00:13 | 41.80454 | 40.53343 | 33170 ft | 488 kts | 94° |
| 2026-05-07 00:14 | 41.80045 | 40.62432 | 33167 ft | 489 kts | 94° |
| 2026-05-07 00:14 | 41.79622 | 40.71524 | 33171 ft | 489 kts | 94° |
| 2026-05-07 00:15 | 41.79178 | 40.80620 | 33170 ft | 489 kts | 94° |
| 2026-05-07 00:15 | 41.78727 | 40.89722 | 33170 ft | 490 kts | 94° |
| 2026-05-07 00:16 | 41.78270 | 40.98833 | 33168 ft | 490 kts | 94° |
| 2026-05-07 00:16 | 41.77883 | 41.06456 | 33171 ft | 490 kts | 95° |
| 2026-05-07 00:17 | 41.77414 | 41.15574 | 33173 ft | 491 kts | 95° |
| 2026-05-07 00:17 | 41.76937 | 41.24693 | 33175 ft | 491 kts | 95° |
| 2026-05-07 00:18 | 41.76453 | 41.33819 | 33178 ft | 491 kts | 95° |
| 2026-05-07 00:18 | 41.75961 | 41.42947 | 33182 ft | 491 kts | 95° |
| 2026-05-07 00:19 | 41.75462 | 41.52078 | 33183 ft | 492 kts | 95° |
| 2026-05-07 00:19 | 41.74954 | 41.61224 | 33186 ft | 492 kts | 95° |
| 2026-05-07 00:20 | 41.74439 | 41.70369 | 33182 ft | 493 kts | 95° |
| 2026-05-07 00:20 | 41.73917 | 41.79519 | 33188 ft | 493 kts | 95° |
| 2026-05-07 00:21 | 41.73386 | 41.88683 | 33184 ft | 494 kts | 96° |
| 2026-05-07 00:21 | 41.72848 | 41.97849 | 33179 ft | 494 kts | 96° |
| 2026-05-07 00:22 | 41.72303 | 42.07026 | 33181 ft | 495 kts | 96° |
| 2026-05-07 00:22 | 41.71748 | 42.16227 | 33184 ft | 496 kts | 96° |
| 2026-05-07 00:23 | 41.71184 | 42.25460 | 33175 ft | 498 kts | 96° |
| 2026-05-07 00:23 | 41.70611 | 42.34695 | 33172 ft | 499 kts | 96° |
| 2026-05-07 00:24 | 41.70030 | 42.43963 | 33181 ft | 500 kts | 96° |
| 2026-05-07 00:24 | 41.69440 | 42.53251 | 33170 ft | 501 kts | 97° |
| 2026-05-07 00:25 | 41.68842 | 42.62542 | 33159 ft | 501 kts | 97° |
| 2026-05-07 00:25 | 41.68237 | 42.71841 | 33161 ft | 502 kts | 97° |
| 2026-05-07 00:26 | 41.67623 | 42.81160 | 33169 ft | 503 kts | 97° |
| 2026-05-07 00:26 | 41.66848 | 42.90451 | 33169 ft | 501 kts | 102° |
| 2026-05-07 00:27 | 41.65615 | 42.99621 | 33163 ft | 501 kts | 103° |
| 2026-05-07 00:27 | 41.64315 | 43.08789 | 33167 ft | 502 kts | 103° |
| 2026-05-07 00:28 | 41.63054 | 43.17987 | 33175 ft | 503 kts | 103° |
| 2026-05-07 00:28 | 41.61816 | 43.27191 | 33150 ft | 504 kts | 103° |
| 2026-05-07 00:29 | 41.60575 | 43.36404 | 33162 ft | 504 kts | 103° |
| 2026-05-07 00:30 | 41.58061 | 43.54848 | 33145 ft | 505 kts | 104° |
| 2026-05-07 00:30 | 41.56790 | 43.64069 | 33149 ft | 505 kts | 104° |
| 2026-05-07 00:31 | 41.55512 | 43.73291 | 33137 ft | 505 kts | 104° |
| 2026-05-07 00:31 | 41.54227 | 43.82510 | 33137 ft | 505 kts | 104° |
| 2026-05-07 00:32 | 41.52935 | 43.91722 | 33133 ft | 505 kts | 104° |
| 2026-05-07 00:32 | 41.51634 | 44.00938 | 33140 ft | 505 kts | 104° |
| 2026-05-07 00:33 | 41.50324 | 44.10160 | 33134 ft | 506 kts | 104° |
| 2026-05-07 00:33 | 41.49004 | 44.19395 | 33137 ft | 507 kts | 104° |
| 2026-05-07 00:34 | 41.47673 | 44.28663 | 33142 ft | 508 kts | 104° |
| 2026-05-07 00:34 | 41.46332 | 44.37928 | 33133 ft | 509 kts | 104° |
| 2026-05-07 00:35 | 41.44984 | 44.47202 | 33130 ft | 510 kts | 104° |
| 2026-05-07 00:35 | 41.43627 | 44.56478 | 33125 ft | 510 kts | 105° |
| 2026-05-07 00:36 | 41.42262 | 44.65754 | 33121 ft | 510 kts | 105° |
| 2026-05-07 00:36 | 41.40890 | 44.75024 | 33110 ft | 510 kts | 105° |
| 2026-05-07 00:37 | 41.39516 | 44.84250 | 33108 ft | 511 kts | 105° |
| 2026-05-07 00:37 | 41.38126 | 44.93534 | 33102 ft | 511 kts | 105° |
| 2026-05-07 00:38 | 41.36729 | 45.02821 | 33099 ft | 512 kts | 105° |
| 2026-05-07 00:38 | 41.35098 | 45.12021 | 33085 ft | 508 kts | 113° |
| 2026-05-07 00:39 | 41.32738 | 45.20869 | 33085 ft | 507 kts | 114° |
| 2026-05-07 00:39 | 41.30401 | 45.29739 | 33092 ft | 508 kts | 113° |
| 2026-05-07 00:40 | 41.28106 | 45.38637 | 33106 ft | 509 kts | 113° |
| 2026-05-07 00:40 | 41.25808 | 45.47559 | 33099 ft | 510 kts | 113° |
| 2026-05-07 00:41 | 41.23496 | 45.56479 | 33084 ft | 511 kts | 114° |
| 2026-05-07 00:41 | 41.21174 | 45.65400 | 33093 ft | 511 kts | 114° |
| 2026-05-07 00:42 | 41.18826 | 45.74302 | 33090 ft | 511 kts | 114° |
| 2026-05-07 00:42 | 41.16461 | 45.83199 | 33090 ft | 510 kts | 114° |
| 2026-05-07 00:43 | 41.14095 | 45.92075 | 33091 ft | 510 kts | 114° |
| 2026-05-07 00:43 | 41.11724 | 46.00952 | 33091 ft | 510 kts | 114° |
| 2026-05-07 00:44 | 41.09348 | 46.09820 | 33091 ft | 511 kts | 114° |
| 2026-05-07 00:44 | 41.06948 | 46.18745 | 33090 ft | 511 kts | 114° |
| 2026-05-07 00:45 | 41.04552 | 46.27627 | 33102 ft | 512 kts | 114° |
| 2026-05-07 00:45 | 41.02160 | 46.36532 | 33096 ft | 514 kts | 114° |
| 2026-05-07 00:46 | 40.99784 | 46.45463 | 33093 ft | 515 kts | 114° |
| 2026-05-07 00:46 | 40.97397 | 46.54397 | 33086 ft | 515 kts | 114° |
| 2026-05-07 00:47 | 40.94999 | 46.63325 | 33092 ft | 515 kts | 114° |
| 2026-05-07 00:47 | 40.92594 | 46.72241 | 33092 ft | 515 kts | 114° |
| 2026-05-07 00:48 | 40.90180 | 46.81166 | 33089 ft | 515 kts | 115° |
| 2026-05-07 00:48 | 40.87752 | 46.90056 | 33093 ft | 514 kts | 115° |
| 2026-05-07 00:49 | 40.85306 | 46.98937 | 33095 ft | 514 kts | 115° |
| 2026-05-07 00:49 | 40.82858 | 47.07814 | 33096 ft | 514 kts | 115° |
| 2026-05-07 00:50 | 40.80408 | 47.16676 | 33102 ft | 514 kts | 115° |
| 2026-05-07 00:50 | 40.77945 | 47.25546 | 33090 ft | 515 kts | 115° |
| 2026-05-07 00:51 | 40.75814 | 47.34536 | 33081 ft | 519 kts | 99° |
| 2026-05-07 00:51 | 40.75952 | 47.39316 | 33104 ft | 528 kts | 79° |
| 2026-05-07 00:51 | 40.76631 | 47.42412 | 33117 ft | 532 kts | 69° |
| 2026-05-07 00:52 | 40.78347 | 47.46745 | 33095 ft | 536 kts | 53° |
| 2026-05-07 00:52 | 40.80753 | 47.50460 | 33111 ft | 531 kts | 46° |
| 2026-05-07 00:52 | 40.85732 | 47.57730 | 33105 ft | 537 kts | 48° |
| 2026-05-07 00:53 | 40.90625 | 47.65234 | 33111 ft | 541 kts | 49° |
| 2026-05-07 00:53 | 40.95517 | 47.72833 | 33107 ft | 543 kts | 49° |
| 2026-05-07 00:54 | 41.00420 | 47.80440 | 33095 ft | 541 kts | 49° |
| 2026-05-07 00:54 | 41.05292 | 47.88006 | 33080 ft | 538 kts | 50° |
| 2026-05-07 00:55 | 41.09796 | 47.95879 | 33084 ft | 534 kts | 54° |
| 2026-05-07 00:55 | 41.14129 | 48.03864 | 33067 ft | 532 kts | 54° |
| 2026-05-07 00:56 | 41.18494 | 48.11781 | 33069 ft | 530 kts | 53° |
| 2026-05-07 00:56 | 41.22852 | 48.19681 | 33082 ft | 531 kts | 53° |
| 2026-05-07 00:57 | 41.27211 | 48.27620 | 33087 ft | 532 kts | 54° |
| 2026-05-07 00:57 | 41.31570 | 48.35592 | 33097 ft | 534 kts | 54° |
| 2026-05-07 00:58 | 41.35938 | 48.43600 | 33106 ft | 536 kts | 54° |
| 2026-05-07 00:58 | 41.40322 | 48.51654 | 33097 ft | 538 kts | 54° |
| 2026-05-07 00:59 | 41.46994 | 48.63686 | 33092 ft | 539 kts | 53° |
| 2026-05-07 01:00 | 41.51515 | 48.71673 | 33085 ft | 539 kts | 53° |
| 2026-05-07 01:00 | 41.55901 | 48.79809 | 33079 ft | 539 kts | 57° |
| 2026-05-07 01:01 | 41.60021 | 48.88176 | 33074 ft | 539 kts | 58° |
| 2026-05-07 01:01 | 41.64138 | 48.96546 | 33075 ft | 539 kts | 57° |
| 2026-05-07 01:02 | 41.68302 | 49.04887 | 33075 ft | 539 kts | 57° |
| 2026-05-07 01:02 | 41.72466 | 49.13218 | 33068 ft | 539 kts | 57° |
| 2026-05-07 01:03 | 41.76624 | 49.21572 | 33071 ft | 538 kts | 57° |
| 2026-05-07 01:03 | 41.80770 | 49.29927 | 33076 ft | 539 kts | 57° |
| 2026-05-07 01:04 | 41.85066 | 49.38176 | 33073 ft | 539 kts | 54° |
| 2026-05-07 01:04 | 41.89559 | 49.46236 | 33073 ft | 539 kts | 53° |
| 2026-05-07 01:05 | 41.94039 | 49.54325 | 33072 ft | 540 kts | 54° |
| 2026-05-07 01:05 | 41.98471 | 49.62471 | 33072 ft | 540 kts | 54° |
| 2026-05-07 01:06 | 42.02885 | 49.70645 | 33069 ft | 540 kts | 54° |
| 2026-05-07 01:06 | 42.07292 | 49.78826 | 33066 ft | 540 kts | 54° |
| 2026-05-07 01:07 | 42.11704 | 49.87029 | 33070 ft | 540 kts | 54° |
| 2026-05-07 01:07 | 42.16108 | 49.95236 | 33064 ft | 541 kts | 54° |
| 2026-05-07 01:08 | 42.20507 | 50.03459 | 33062 ft | 541 kts | 54° |
| 2026-05-07 01:08 | 42.24931 | 50.11749 | 33064 ft | 541 kts | 54° |
| 2026-05-07 01:09 | 42.29321 | 50.20001 | 33064 ft | 541 kts | 55° |
| 2026-05-07 01:09 | 42.33710 | 50.28274 | 33067 ft | 541 kts | 55° |
| 2026-05-07 01:10 | 42.38090 | 50.36551 | 33066 ft | 542 kts | 55° |
| 2026-05-07 01:10 | 42.42447 | 50.44807 | 33063 ft | 542 kts | 55° |
| 2026-05-07 01:11 | 42.46908 | 50.53043 | 33060 ft | 542 kts | 52° |
| 2026-05-07 01:11 | 42.51572 | 50.61083 | 33061 ft | 542 kts | 52° |
| 2026-05-07 01:12 | 42.56242 | 50.69111 | 33058 ft | 542 kts | 52° |
| 2026-05-07 01:12 | 42.60873 | 50.77198 | 33069 ft | 542 kts | 52° |
| 2026-05-07 01:13 | 42.65479 | 50.85320 | 33053 ft | 543 kts | 53° |
| 2026-05-07 01:13 | 42.70083 | 50.93464 | 33053 ft | 543 kts | 53° |
| 2026-05-07 01:14 | 42.74679 | 51.01608 | 33052 ft | 543 kts | 53° |
| 2026-05-07 01:14 | 42.79276 | 51.09771 | 33047 ft | 543 kts | 53° |
| 2026-05-07 01:15 | 42.83867 | 51.17946 | 33043 ft | 543 kts | 53° |
| 2026-05-07 01:15 | 42.88453 | 51.26135 | 33044 ft | 544 kts | 53° |
| 2026-05-07 01:16 | 42.93038 | 51.34345 | 33040 ft | 544 kts | 53° |
| 2026-05-07 01:16 | 42.97617 | 51.42569 | 33036 ft | 544 kts | 53° |
| 2026-05-07 01:17 | 43.02190 | 51.50803 | 33034 ft | 544 kts | 53° |
| 2026-05-07 01:17 | 43.06760 | 51.59055 | 33027 ft | 544 kts | 53° |
| 2026-05-07 01:18 | 43.11324 | 51.67319 | 33029 ft | 544 kts | 53° |
| 2026-05-07 01:18 | 43.15885 | 51.75601 | 33024 ft | 545 kts | 53° |
| 2026-05-07 01:19 | 43.20440 | 51.83895 | 33036 ft | 545 kts | 53° |
| 2026-05-07 01:19 | 43.24994 | 51.92211 | 33024 ft | 545 kts | 53° |
| 2026-05-07 01:20 | 43.29541 | 52.00537 | 33020 ft | 545 kts | 53° |
| 2026-05-07 01:20 | 43.34081 | 52.08875 | 33020 ft | 545 kts | 53° |
| 2026-05-07 01:21 | 43.38618 | 52.17230 | 33038 ft | 545 kts | 53° |
| 2026-05-07 01:21 | 43.43148 | 52.25597 | 33035 ft | 545 kts | 53° |
| 2026-05-07 01:22 | 43.47677 | 52.33985 | 33017 ft | 545 kts | 53° |
| 2026-05-07 01:22 | 43.52198 | 52.42383 | 33033 ft | 546 kts | 53° |
| 2026-05-07 01:23 | 43.56714 | 52.50797 | 33035 ft | 546 kts | 54° |
| 2026-05-07 01:23 | 43.61225 | 52.59224 | 33034 ft | 546 kts | 54° |
| 2026-05-07 01:24 | 43.65732 | 52.67666 | 33009 ft | 546 kts | 54° |
| 2026-05-07 01:24 | 43.70218 | 52.76133 | 33023 ft | 546 kts | 54° |
| 2026-05-07 01:25 | 43.74690 | 52.84628 | 33022 ft | 546 kts | 54° |
| 2026-05-07 01:25 | 43.79157 | 52.93133 | 32996 ft | 546 kts | 54° |
| 2026-05-07 01:26 | 43.83618 | 53.01645 | 33019 ft | 546 kts | 54° |
| 2026-05-07 01:26 | 43.88076 | 53.10174 | 33014 ft | 546 kts | 54° |
| 2026-05-07 01:27 | 43.91809 | 53.17328 | 33007 ft | 546 kts | 54° |
| 2026-05-07 01:27 | 43.96258 | 53.25868 | 33006 ft | 546 kts | 54° |
| 2026-05-07 01:28 | 44.00690 | 53.34400 | 33004 ft | 547 kts | 54° |
| 2026-05-07 01:28 | 44.05131 | 53.42979 | 33007 ft | 547 kts | 54° |
| 2026-05-07 01:29 | 44.09573 | 53.51585 | 33013 ft | 547 kts | 54° |
| 2026-05-07 01:29 | 44.14018 | 53.60221 | 33003 ft | 547 kts | 54° |
| 2026-05-07 01:30 | 44.18432 | 53.68825 | 32999 ft | 547 kts | 55° |
| 2026-05-07 01:30 | 44.22858 | 53.77476 | 32998 ft | 547 kts | 55° |
| 2026-05-07 01:31 | 44.27271 | 53.86129 | 32995 ft | 548 kts | 55° |
| 2026-05-07 01:31 | 44.31687 | 53.94811 | 32997 ft | 548 kts | 55° |
| 2026-05-07 01:32 | 44.36086 | 54.03488 | 32993 ft | 548 kts | 55° |
| 2026-05-07 01:32 | 44.40492 | 54.12205 | 32992 ft | 548 kts | 55° |
| 2026-05-07 01:33 | 44.44872 | 54.20896 | 32989 ft | 548 kts | 55° |
| 2026-05-07 01:33 | 44.49263 | 54.29635 | 32987 ft | 548 kts | 56° |
| 2026-05-07 01:34 | 44.53647 | 54.38388 | 32985 ft | 548 kts | 56° |
| 2026-05-07 01:34 | 44.58019 | 54.47142 | 32986 ft | 549 kts | 56° |
| 2026-05-07 01:35 | 44.62403 | 54.55948 | 32982 ft | 549 kts | 56° |
| 2026-05-07 01:35 | 44.67008 | 54.64499 | 32978 ft | 549 kts | 48° |
| 2026-05-07 01:36 | 44.72541 | 54.71875 | 32989 ft | 548 kts | 40° |
| 2026-05-07 01:36 | 44.78240 | 54.79001 | 32976 ft | 549 kts | 41° |
| 2026-05-07 01:37 | 44.83902 | 54.86244 | 32968 ft | 549 kts | 41° |
| 2026-05-07 01:37 | 44.89538 | 54.93521 | 32969 ft | 550 kts | 41° |
| 2026-05-07 01:38 | 44.95188 | 55.00825 | 32970 ft | 550 kts | 41° |
| 2026-05-07 01:38 | 45.00807 | 55.08100 | 32975 ft | 550 kts | 41° |
| 2026-05-07 01:39 | 45.06265 | 55.15694 | 32955 ft | 549 kts | 51° |
| 2026-05-07 01:39 | 45.10373 | 55.24728 | 32958 ft | 547 kts | 66° |
| 2026-05-07 01:40 | 45.13158 | 55.34715 | 32976 ft | 544 kts | 72° |
| 2026-05-07 01:40 | 45.15819 | 55.44745 | 32970 ft | 546 kts | 72° |
| 2026-05-07 01:41 | 45.18562 | 55.54843 | 32961 ft | 548 kts | 71° |
| 2026-05-07 01:41 | 45.21312 | 55.64923 | 32960 ft | 549 kts | 71° |
| 2026-05-07 01:42 | 45.24058 | 55.75034 | 32958 ft | 549 kts | 71° |
| 2026-05-07 01:42 | 45.26793 | 55.85171 | 32959 ft | 549 kts | 72° |
| 2026-05-07 01:43 | 45.29514 | 55.95306 | 32955 ft | 549 kts | 72° |
| 2026-05-07 01:43 | 45.32223 | 56.05437 | 32950 ft | 548 kts | 72° |
| 2026-05-07 01:44 | 45.34911 | 56.15534 | 32946 ft | 548 kts | 72° |
| 2026-05-07 01:44 | 45.37604 | 56.25693 | 32948 ft | 547 kts | 72° |
| 2026-05-07 01:45 | 45.40282 | 56.35837 | 32948 ft | 547 kts | 72° |
| 2026-05-07 01:45 | 45.42946 | 56.45973 | 32947 ft | 547 kts | 72° |
| 2026-05-07 01:46 | 45.45600 | 56.56114 | 32946 ft | 546 kts | 72° |
| 2026-05-07 01:46 | 45.48247 | 56.66271 | 32941 ft | 546 kts | 72° |
| 2026-05-07 01:47 | 45.50874 | 56.76396 | 32940 ft | 546 kts | 72° |
| 2026-05-07 01:47 | 45.53498 | 56.86553 | 32937 ft | 545 kts | 72° |
| 2026-05-07 01:48 | 45.56109 | 56.96704 | 32931 ft | 545 kts | 72° |
| 2026-05-07 01:48 | 45.58708 | 57.06854 | 32938 ft | 544 kts | 73° |
| 2026-05-07 01:49 | 45.61293 | 57.16996 | 32938 ft | 544 kts | 73° |
| 2026-05-07 01:49 | 45.63878 | 57.27181 | 32931 ft | 543 kts | 73° |
| 2026-05-07 01:50 | 45.66441 | 57.37320 | 32929 ft | 542 kts | 73° |
| 2026-05-07 01:50 | 45.68990 | 57.47454 | 32926 ft | 541 kts | 73° |
| 2026-05-07 01:51 | 45.71523 | 57.57567 | 32916 ft | 540 kts | 73° |
| 2026-05-07 01:51 | 45.74044 | 57.67670 | 32918 ft | 538 kts | 73° |
| 2026-05-07 01:52 | 45.76551 | 57.77761 | 32919 ft | 537 kts | 73° |
| 2026-05-07 01:52 | 45.79045 | 57.87837 | 32919 ft | 536 kts | 73° |
| 2026-05-07 01:53 | 45.81527 | 57.97911 | 32916 ft | 535 kts | 73° |
| 2026-05-07 01:53 | 45.83996 | 58.07979 | 32916 ft | 534 kts | 73° |
| 2026-05-07 01:54 | 45.86452 | 58.18039 | 32920 ft | 534 kts | 73° |
| 2026-05-07 01:54 | 45.88880 | 58.28028 | 32921 ft | 533 kts | 74° |
| 2026-05-07 01:55 | 45.91325 | 58.38134 | 32923 ft | 532 kts | 74° |
| 2026-05-07 01:55 | 45.93746 | 58.48184 | 32921 ft | 531 kts | 74° |
| 2026-05-07 01:56 | 45.96152 | 58.58217 | 32919 ft | 531 kts | 74° |
| 2026-05-07 01:56 | 45.98545 | 58.68244 | 32921 ft | 530 kts | 74° |
| 2026-05-07 01:57 | 46.00928 | 58.78272 | 32921 ft | 530 kts | 74° |
| 2026-05-07 01:57 | 46.03300 | 58.88300 | 32921 ft | 529 kts | 74° |
| 2026-05-07 01:58 | 46.05662 | 58.98332 | 32923 ft | 529 kts | 74° |
| 2026-05-07 01:58 | 46.08013 | 59.08362 | 32926 ft | 529 kts | 74° |
| 2026-05-07 01:59 | 46.10356 | 59.18407 | 32924 ft | 529 kts | 74° |
| 2026-05-07 01:59 | 46.12691 | 59.28462 | 32917 ft | 529 kts | 74° |
| 2026-05-07 02:00 | 46.15016 | 59.38519 | 32921 ft | 529 kts | 74° |
| 2026-05-07 02:00 | 46.17332 | 59.48584 | 32916 ft | 529 kts | 75° |
| 2026-05-07 02:01 | 46.19640 | 59.58663 | 32916 ft | 529 kts | 75° |
| 2026-05-07 02:01 | 46.21938 | 59.68741 | 32919 ft | 529 kts | 75° |
| 2026-05-07 02:02 | 46.24222 | 59.78830 | 32915 ft | 529 kts | 75° |
| 2026-05-07 02:02 | 46.26104 | 59.87226 | 32917 ft | 529 kts | 75° |
| 2026-05-07 02:03 | 46.28357 | 59.97338 | 32909 ft | 529 kts | 75° |
| 2026-05-07 02:03 | 46.30608 | 60.07475 | 32911 ft | 529 kts | 75° |
| 2026-05-07 02:04 | 46.32863 | 60.17675 | 32899 ft | 529 kts | 75° |
| 2026-05-07 02:04 | 46.35083 | 60.27762 | 32914 ft | 529 kts | 75° |
| 2026-05-07 02:05 | 46.37308 | 60.37920 | 32906 ft | 529 kts | 75° |
| 2026-05-07 02:05 | 46.39534 | 60.48137 | 32896 ft | 529 kts | 75° |
| 2026-05-07 02:06 | 46.41738 | 60.58298 | 32889 ft | 528 kts | 75° |
| 2026-05-07 02:06 | 46.43929 | 60.68450 | 32897 ft | 528 kts | 75° |
| 2026-05-07 02:07 | 46.46112 | 60.78618 | 32899 ft | 527 kts | 75° |
| 2026-05-07 02:07 | 46.49351 | 60.93798 | 32896 ft | 528 kts | 75° |
| 2026-05-07 02:08 | 46.51510 | 61.03974 | 32892 ft | 528 kts | 75° |
| 2026-05-07 02:08 | 46.53663 | 61.14177 | 32899 ft | 528 kts | 75° |
| 2026-05-07 02:09 | 46.55805 | 61.24378 | 32895 ft | 528 kts | 75° |
| 2026-05-07 02:09 | 46.57941 | 61.34598 | 32896 ft | 528 kts | 75° |
| 2026-05-07 02:10 | 46.60066 | 61.44822 | 32895 ft | 528 kts | 75° |
| 2026-05-07 02:10 | 46.62182 | 61.55053 | 32904 ft | 528 kts | 75° |
| 2026-05-07 02:11 | 46.64287 | 61.65285 | 32903 ft | 528 kts | 75° |
| 2026-05-07 02:11 | 46.66385 | 61.75533 | 32897 ft | 528 kts | 75° |
| 2026-05-07 02:12 | 46.68471 | 61.85775 | 32907 ft | 528 kts | 75° |
| 2026-05-07 02:12 | 46.70563 | 61.96098 | 32903 ft | 528 kts | 76° |
| 2026-05-07 02:13 | 46.72631 | 62.06360 | 32911 ft | 528 kts | 76° |
| 2026-05-07 02:13 | 46.74691 | 62.16629 | 32908 ft | 528 kts | 76° |
| 2026-05-07 02:14 | 46.76741 | 62.26911 | 32907 ft | 528 kts | 76° |
| 2026-05-07 02:14 | 46.78780 | 62.37185 | 32918 ft | 527 kts | 76° |
| 2026-05-07 02:15 | 46.80810 | 62.47472 | 32915 ft | 527 kts | 76° |
| 2026-05-07 02:15 | 46.82832 | 62.57761 | 32912 ft | 527 kts | 76° |
| 2026-05-07 02:16 | 46.84842 | 62.68060 | 32914 ft | 527 kts | 76° |
| 2026-05-07 02:16 | 46.86843 | 62.78362 | 32929 ft | 527 kts | 76° |
| 2026-05-07 02:17 | 46.88823 | 62.88612 | 32927 ft | 527 kts | 76° |
| 2026-05-07 02:17 | 46.90818 | 62.98994 | 32923 ft | 527 kts | 76° |
| 2026-05-07 02:18 | 46.92779 | 63.09256 | 32923 ft | 527 kts | 76° |
| 2026-05-07 02:18 | 46.94746 | 63.19604 | 32928 ft | 527 kts | 76° |
| 2026-05-07 02:19 | 46.96703 | 63.29958 | 32929 ft | 528 kts | 76° |
| 2026-05-07 02:19 | 46.98651 | 63.40321 | 32932 ft | 528 kts | 76° |
| 2026-05-07 02:20 | 47.00590 | 63.50693 | 32932 ft | 528 kts | 77° |
| 2026-05-07 02:20 | 47.02520 | 63.61070 | 32929 ft | 528 kts | 77° |
| 2026-05-07 02:21 | 47.04441 | 63.71463 | 32933 ft | 528 kts | 77° |
| 2026-05-07 02:21 | 47.06353 | 63.81863 | 32934 ft | 528 kts | 77° |
| 2026-05-07 02:22 | 47.08255 | 63.92270 | 32938 ft | 528 kts | 77° |
| 2026-05-07 02:22 | 47.10146 | 64.02671 | 32936 ft | 528 kts | 77° |
| 2026-05-07 02:23 | 47.12028 | 64.13082 | 32938 ft | 527 kts | 77° |
| 2026-05-07 02:23 | 47.13897 | 64.23489 | 32943 ft | 527 kts | 77° |
| 2026-05-07 02:24 | 47.15770 | 64.33969 | 32946 ft | 526 kts | 77° |
| 2026-05-07 02:24 | 47.17617 | 64.44369 | 32942 ft | 526 kts | 77° |
| 2026-05-07 02:25 | 47.19454 | 64.54759 | 32943 ft | 525 kts | 77° |
| 2026-05-07 02:25 | 47.21285 | 64.65141 | 32941 ft | 524 kts | 78° |
| 2026-05-07 02:26 | 47.23110 | 64.75521 | 32943 ft | 523 kts | 78° |
| 2026-05-07 02:26 | 47.24923 | 64.85895 | 32942 ft | 522 kts | 78° |
| 2026-05-07 02:27 | 47.26721 | 64.96250 | 32951 ft | 522 kts | 78° |
| 2026-05-07 02:27 | 47.28510 | 65.06618 | 32950 ft | 522 kts | 78° |
| 2026-05-07 02:28 | 47.30291 | 65.16998 | 32950 ft | 523 kts | 78° |
| 2026-05-07 02:28 | 47.32066 | 65.27401 | 32955 ft | 524 kts | 78° |
| 2026-05-07 02:29 | 47.33833 | 65.37823 | 32959 ft | 524 kts | 78° |
| 2026-05-07 02:29 | 47.35593 | 65.48269 | 32961 ft | 525 kts | 78° |
| 2026-05-07 02:30 | 47.37346 | 65.58733 | 32963 ft | 525 kts | 78° |
| 2026-05-07 02:30 | 47.39089 | 65.69204 | 32964 ft | 526 kts | 78° |
| 2026-05-07 02:31 | 47.40826 | 65.79693 | 32971 ft | 526 kts | 78° |
| 2026-05-07 02:31 | 47.42569 | 65.90175 | 32969 ft | 526 kts | 78° |
| 2026-05-07 02:32 | 47.44366 | 66.00635 | 32977 ft | 525 kts | 78° |
| 2026-05-07 02:32 | 47.46158 | 66.11093 | 32984 ft | 524 kts | 78° |
| 2026-05-07 02:33 | 47.47928 | 66.21548 | 32986 ft | 524 kts | 78° |
| 2026-05-07 02:33 | 47.49683 | 66.32004 | 32993 ft | 523 kts | 78° |
| 2026-05-07 02:34 | 47.51425 | 66.42447 | 32991 ft | 523 kts | 78° |
| 2026-05-07 02:34 | 47.53157 | 66.52889 | 32992 ft | 523 kts | 78° |
| 2026-05-07 02:35 | 47.54881 | 66.63342 | 33003 ft | 522 kts | 78° |
| 2026-05-07 02:35 | 47.56594 | 66.73796 | 33005 ft | 522 kts | 78° |
| 2026-05-07 02:36 | 47.58240 | 66.84287 | 33006 ft | 522 kts | 79° |
| 2026-05-07 02:36 | 47.59849 | 66.94775 | 33008 ft | 522 kts | 79° |
| 2026-05-07 02:37 | 47.61457 | 67.05268 | 33011 ft | 522 kts | 79° |
| 2026-05-07 02:37 | 47.62792 | 67.13998 | 33009 ft | 522 kts | 79° |
| 2026-05-07 02:38 | 47.64390 | 67.24495 | 33002 ft | 522 kts | 79° |
| 2026-05-07 02:38 | 47.65978 | 67.35003 | 33002 ft | 522 kts | 79° |
| 2026-05-07 02:39 | 47.67554 | 67.45502 | 32995 ft | 521 kts | 79° |
| 2026-05-07 02:39 | 47.69118 | 67.55998 | 32998 ft | 521 kts | 79° |
| 2026-05-07 02:40 | 47.70673 | 67.66498 | 32991 ft | 520 kts | 79° |
| 2026-05-07 02:40 | 47.72198 | 67.76995 | 32991 ft | 519 kts | 81° |
| 2026-05-07 02:41 | 47.73278 | 67.87576 | 32995 ft | 518 kts | 83° |
| 2026-05-07 02:41 | 47.74278 | 67.98167 | 32992 ft | 518 kts | 83° |
| 2026-05-07 02:42 | 47.75292 | 68.08764 | 33008 ft | 518 kts | 83° |
| 2026-05-07 02:42 | 47.76313 | 68.19365 | 33006 ft | 518 kts | 83° |
| 2026-05-07 02:43 | 47.77326 | 68.29975 | 33004 ft | 518 kts | 83° |
| 2026-05-07 02:43 | 47.78327 | 68.40583 | 33005 ft | 518 kts | 83° |
| 2026-05-07 02:44 | 47.79318 | 68.51192 | 32994 ft | 518 kts | 83° |
| 2026-05-07 02:44 | 47.80298 | 68.61801 | 33001 ft | 518 kts | 83° |
| 2026-05-07 02:45 | 47.81270 | 68.72415 | 33008 ft | 517 kts | 83° |
| 2026-05-07 02:45 | 47.82112 | 68.83039 | 32994 ft | 516 kts | 88° |
| 2026-05-07 02:46 | 47.81956 | 68.93682 | 33006 ft | 515 kts | 94° |
| 2026-05-07 02:46 | 47.81695 | 69.04330 | 33008 ft | 515 kts | 93° |
| 2026-05-07 02:47 | 47.81476 | 69.14981 | 32999 ft | 515 kts | 92° |
| 2026-05-07 02:47 | 47.81266 | 69.25625 | 33004 ft | 515 kts | 92° |
| 2026-05-07 02:48 | 47.81046 | 69.36285 | 32996 ft | 515 kts | 92° |
| 2026-05-07 02:48 | 47.80813 | 69.46942 | 32998 ft | 515 kts | 93° |
| 2026-05-07 02:49 | 47.80568 | 69.57607 | 33003 ft | 516 kts | 92° |
| 2026-05-07 02:49 | 47.80314 | 69.68268 | 33005 ft | 516 kts | 92° |
| 2026-05-07 02:50 | 47.80049 | 69.78932 | 33005 ft | 516 kts | 92° |
| 2026-05-07 02:50 | 47.79775 | 69.89608 | 33003 ft | 517 kts | 92° |
| 2026-05-07 02:51 | 47.79490 | 70.00282 | 33011 ft | 517 kts | 92° |
| 2026-05-07 02:51 | 47.79196 | 70.10967 | 33008 ft | 517 kts | 92° |
| 2026-05-07 02:52 | 47.78892 | 70.21636 | 33010 ft | 517 kts | 92° |
| 2026-05-07 02:52 | 47.78577 | 70.32310 | 33014 ft | 516 kts | 92° |
| 2026-05-07 02:53 | 47.78254 | 70.42965 | 33024 ft | 516 kts | 93° |
| 2026-05-07 02:53 | 47.77921 | 70.53606 | 33021 ft | 515 kts | 93° |
| 2026-05-07 02:54 | 47.77578 | 70.64243 | 33019 ft | 515 kts | 93° |
| 2026-05-07 02:54 | 47.77226 | 70.74870 | 33027 ft | 514 kts | 93° |
| 2026-05-07 02:55 | 47.76864 | 70.85497 | 33020 ft | 514 kts | 93° |
| 2026-05-07 02:55 | 47.76492 | 70.96117 | 33024 ft | 514 kts | 93° |
| 2026-05-07 02:56 | 47.76111 | 71.06732 | 33029 ft | 514 kts | 94° |
| 2026-05-07 02:56 | 47.75720 | 71.17345 | 33028 ft | 515 kts | 94° |
| 2026-05-07 02:57 | 47.75318 | 71.27969 | 33034 ft | 515 kts | 94° |
| 2026-05-07 02:57 | 47.74907 | 71.38589 | 33037 ft | 515 kts | 94° |
| 2026-05-07 02:58 | 47.74486 | 71.49213 | 33031 ft | 515 kts | 94° |
| 2026-05-07 02:58 | 47.74055 | 71.59836 | 33039 ft | 515 kts | 94° |
| 2026-05-07 02:59 | 47.73615 | 71.70444 | 33043 ft | 514 kts | 94° |
| 2026-05-07 02:59 | 47.73167 | 71.81055 | 33049 ft | 514 kts | 95° |
| 2026-05-07 03:00 | 47.72639 | 71.91636 | 33049 ft | 513 kts | 96° |
| 2026-05-07 03:00 | 47.72010 | 72.02185 | 33055 ft | 513 kts | 96° |
| 2026-05-07 03:01 | 47.71372 | 72.12727 | 33056 ft | 512 kts | 96° |
| 2026-05-07 03:01 | 47.70742 | 72.23259 | 33058 ft | 512 kts | 96° |
| 2026-05-07 03:02 | 47.70109 | 72.33795 | 33064 ft | 512 kts | 96° |
| 2026-05-07 03:02 | 47.69468 | 72.44313 | 33059 ft | 512 kts | 97° |
| 2026-05-07 03:03 | 47.68817 | 72.54835 | 33066 ft | 512 kts | 97° |
| 2026-05-07 03:03 | 47.68155 | 72.65366 | 33073 ft | 512 kts | 97° |
| 2026-05-07 03:04 | 47.67483 | 72.75892 | 33067 ft | 513 kts | 97° |
| 2026-05-07 03:04 | 47.66800 | 72.86432 | 33068 ft | 513 kts | 97° |
| 2026-05-07 03:05 | 47.66109 | 72.96956 | 33071 ft | 512 kts | 97° |
| 2026-05-07 03:05 | 47.65408 | 73.07475 | 33061 ft | 513 kts | 97° |
| 2026-05-07 03:06 | 47.64697 | 73.17996 | 33066 ft | 512 kts | 97° |
| 2026-05-07 03:06 | 47.63977 | 73.28507 | 33062 ft | 512 kts | 97° |
| 2026-05-07 03:07 | 47.63248 | 73.39018 | 33069 ft | 513 kts | 98° |
| 2026-05-07 03:07 | 47.62507 | 73.49535 | 33063 ft | 513 kts | 98° |
| 2026-05-07 03:08 | 47.62132 | 73.54808 | 33199 ft | 515 kts | 98° |
| 2026-05-07 03:08 | 47.61756 | 73.60076 | 33558 ft | 513 kts | 98° |
| 2026-05-07 03:08 | 47.61378 | 73.65325 | 33956 ft | 511 kts | 98° |
| 2026-05-07 03:08 | 47.61000 | 73.70554 | 34265 ft | 510 kts | 98° |
| 2026-05-07 03:09 | 47.60614 | 73.75841 | 34518 ft | 510 kts | 98° |
| 2026-05-07 03:09 | 47.60235 | 73.81007 | 34744 ft | 510 kts | 98° |
| 2026-05-07 03:09 | 47.59849 | 73.86229 | 34955 ft | 510 kts | 98° |
| 2026-05-07 03:09 | 47.59459 | 73.91479 | 34999 ft | 512 kts | 98° |
| 2026-05-07 03:10 | 47.58672 | 74.01963 | 35058 ft | 511 kts | 98° |
| 2026-05-07 03:10 | 47.57880 | 74.12398 | 35058 ft | 509 kts | 98° |
| 2026-05-07 03:11 | 47.57080 | 74.22804 | 35060 ft | 508 kts | 98° |
| 2026-05-07 03:11 | 47.56271 | 74.33198 | 35058 ft | 508 kts | 98° |
| 2026-05-07 03:12 | 47.55452 | 74.43588 | 35060 ft | 509 kts | 98° |
| 2026-05-07 03:12 | 47.54623 | 74.53992 | 35060 ft | 510 kts | 98° |
| 2026-05-07 03:13 | 47.53782 | 74.64434 | 35059 ft | 511 kts | 98° |
| 2026-05-07 03:13 | 47.53069 | 74.73186 | 35056 ft | 512 kts | 98° |
| 2026-05-07 03:14 | 47.52207 | 74.83665 | 35056 ft | 512 kts | 98° |
| 2026-05-07 03:15 | 47.50897 | 74.99350 | 35057 ft | 512 kts | 98° |
| 2026-05-07 03:15 | 47.50014 | 75.09790 | 35054 ft | 512 kts | 98° |
| 2026-05-07 03:16 | 47.49119 | 75.20235 | 35055 ft | 511 kts | 98° |
| 2026-05-07 03:16 | 47.48217 | 75.30663 | 35054 ft | 511 kts | 98° |
| 2026-05-07 03:17 | 47.47306 | 75.41083 | 35058 ft | 511 kts | 98° |
| 2026-05-07 03:17 | 47.46386 | 75.51484 | 35059 ft | 510 kts | 98° |
| 2026-05-07 03:18 | 47.45456 | 75.61891 | 35057 ft | 511 kts | 98° |
| 2026-05-07 03:18 | 47.44518 | 75.72284 | 35057 ft | 511 kts | 98° |
| 2026-05-07 03:19 | 47.43569 | 75.82693 | 35055 ft | 511 kts | 98° |
| 2026-05-07 03:19 | 47.42610 | 75.93095 | 35057 ft | 511 kts | 98° |
| 2026-05-07 03:20 | 47.41641 | 76.03503 | 35061 ft | 512 kts | 98° |
| 2026-05-07 03:20 | 47.40663 | 76.13911 | 35053 ft | 512 kts | 98° |
| 2026-05-07 03:21 | 47.39674 | 76.24318 | 35057 ft | 512 kts | 98° |
| 2026-05-07 03:21 | 47.38677 | 76.34721 | 35062 ft | 512 kts | 98° |
| 2026-05-07 03:22 | 47.37671 | 76.45109 | 35057 ft | 511 kts | 98° |
| 2026-05-07 03:22 | 47.36656 | 76.55488 | 35056 ft | 511 kts | 98° |
| 2026-05-07 03:23 | 47.35633 | 76.65849 | 35052 ft | 511 kts | 98° |
| 2026-05-07 03:23 | 47.34602 | 76.76199 | 35056 ft | 510 kts | 98° |
| 2026-05-07 03:24 | 47.33559 | 76.86565 | 35057 ft | 510 kts | 98° |
| 2026-05-07 03:24 | 47.32512 | 76.96896 | 35057 ft | 509 kts | 98° |
| 2026-05-07 03:25 | 47.31479 | 77.07219 | 35073 ft | 508 kts | 96° |
| 2026-05-07 03:25 | 47.30843 | 77.17591 | 35078 ft | 508 kts | 93° |
| 2026-05-07 03:26 | 47.30377 | 77.27987 | 35062 ft | 508 kts | 93° |
| 2026-05-07 03:26 | 47.29871 | 77.38376 | 35060 ft | 508 kts | 93° |
| 2026-05-07 03:27 | 47.29312 | 77.48747 | 35065 ft | 508 kts | 94° |
| 2026-05-07 03:27 | 47.28729 | 77.59119 | 35064 ft | 508 kts | 94° |
| 2026-05-07 03:28 | 47.28138 | 77.69497 | 35063 ft | 508 kts | 94° |
| 2026-05-07 03:28 | 47.27540 | 77.79853 | 35062 ft | 508 kts | 94° |
| 2026-05-07 03:29 | 47.26935 | 77.90213 | 35068 ft | 507 kts | 94° |
| 2026-05-07 03:29 | 47.26320 | 78.00560 | 35068 ft | 507 kts | 94° |
| 2026-05-07 03:30 | 47.25697 | 78.10903 | 35072 ft | 507 kts | 94° |
| 2026-05-07 03:30 | 47.25063 | 78.21245 | 35070 ft | 507 kts | 94° |
| 2026-05-07 03:31 | 47.24420 | 78.31586 | 35073 ft | 507 kts | 94° |
| 2026-05-07 03:31 | 47.23769 | 78.41911 | 35078 ft | 507 kts | 94° |
| 2026-05-07 03:32 | 47.23106 | 78.52292 | 35078 ft | 506 kts | 94° |
| 2026-05-07 03:32 | 47.22436 | 78.62606 | 35078 ft | 506 kts | 94° |
| 2026-05-07 03:33 | 47.21763 | 78.72845 | 35079 ft | 506 kts | 94° |
| 2026-05-07 03:33 | 47.21072 | 78.83201 | 35079 ft | 505 kts | 94° |
| 2026-05-07 03:34 | 47.20376 | 78.93488 | 35074 ft | 505 kts | 94° |
| 2026-05-07 03:34 | 47.19673 | 79.03764 | 35077 ft | 505 kts | 94° |
| 2026-05-07 03:35 | 47.18962 | 79.14023 | 35071 ft | 504 kts | 94° |
| 2026-05-07 03:35 | 47.18233 | 79.24276 | 35071 ft | 504 kts | 94° |
| 2026-05-07 03:36 | 47.17490 | 79.34516 | 35065 ft | 503 kts | 94° |
| 2026-05-07 03:36 | 47.16740 | 79.44747 | 35069 ft | 503 kts | 94° |
| 2026-05-07 03:37 | 47.15984 | 79.54959 | 35065 ft | 503 kts | 94° |
| 2026-05-07 03:37 | 47.15219 | 79.65169 | 35066 ft | 502 kts | 94° |
| 2026-05-07 03:38 | 47.14447 | 79.75363 | 35064 ft | 502 kts | 94° |
| 2026-05-07 03:38 | 47.13666 | 79.85552 | 35058 ft | 502 kts | 94° |
| 2026-05-07 03:39 | 47.12883 | 79.95732 | 35063 ft | 502 kts | 94° |
| 2026-05-07 03:39 | 47.12101 | 80.05909 | 35057 ft | 501 kts | 94° |
| 2026-05-07 03:40 | 47.11310 | 80.16078 | 35061 ft | 501 kts | 94° |
| 2026-05-07 03:40 | 47.10510 | 80.26239 | 35059 ft | 501 kts | 94° |
| 2026-05-07 03:41 | 47.09699 | 80.36401 | 35055 ft | 501 kts | 94° |
| 2026-05-07 03:41 | 47.08881 | 80.46547 | 35054 ft | 500 kts | 94° |
| 2026-05-07 03:42 | 47.08054 | 80.56683 | 35057 ft | 500 kts | 94° |
| 2026-05-07 03:42 | 47.07219 | 80.66816 | 35058 ft | 500 kts | 94° |
| 2026-05-07 03:43 | 47.06376 | 80.76932 | 35061 ft | 500 kts | 94° |
| 2026-05-07 03:43 | 47.05524 | 80.87045 | 35059 ft | 499 kts | 94° |
| 2026-05-07 03:44 | 47.04666 | 80.97138 | 35061 ft | 499 kts | 94° |
| 2026-05-07 03:44 | 47.03797 | 81.07234 | 35057 ft | 499 kts | 94° |
| 2026-05-07 03:45 | 47.02921 | 81.17323 | 35063 ft | 498 kts | 94° |
| 2026-05-07 03:45 | 47.02039 | 81.27393 | 35063 ft | 498 kts | 94° |
| 2026-05-07 03:46 | 47.01148 | 81.37466 | 35061 ft | 498 kts | 94° |
| 2026-05-07 03:46 | 47.00249 | 81.47525 | 35057 ft | 498 kts | 95° |
| 2026-05-07 03:47 | 46.99341 | 81.57571 | 35071 ft | 498 kts | 95° |
| 2026-05-07 03:47 | 46.98574 | 81.65988 | 35062 ft | 497 kts | 95° |
| 2026-05-07 03:48 | 46.97653 | 81.76017 | 35064 ft | 497 kts | 95° |
| 2026-05-07 03:48 | 46.96721 | 81.86063 | 35066 ft | 496 kts | 95° |
| 2026-05-07 03:49 | 46.95781 | 81.96072 | 35071 ft | 496 kts | 95° |
| 2026-05-07 03:49 | 46.94817 | 82.06059 | 35069 ft | 495 kts | 95° |
| 2026-05-07 03:50 | 46.93844 | 82.16036 | 35073 ft | 495 kts | 95° |
| 2026-05-07 03:50 | 46.92872 | 82.25928 | 35079 ft | 494 kts | 95° |
| 2026-05-07 03:51 | 46.91888 | 82.35873 | 35084 ft | 493 kts | 95° |
| 2026-05-07 03:51 | 46.90896 | 82.45797 | 35084 ft | 493 kts | 95° |
| 2026-05-07 03:52 | 46.89898 | 82.55710 | 35085 ft | 492 kts | 95° |
| 2026-05-07 03:52 | 46.88891 | 82.65614 | 35084 ft | 492 kts | 95° |
| 2026-05-07 03:53 | 46.87879 | 82.75499 | 35084 ft | 492 kts | 95° |
| 2026-05-07 03:53 | 46.86670 | 82.85401 | 35070 ft | 494 kts | 103° |
| 2026-05-07 03:54 | 46.84056 | 82.94715 | 35084 ft | 498 kts | 117° |
| 2026-05-07 03:54 | 46.80333 | 83.03270 | 35078 ft | 499 kts | 121° |
| 2026-05-07 03:55 | 46.76596 | 83.11821 | 35075 ft | 499 kts | 120° |
| 2026-05-07 03:55 | 46.72901 | 83.20391 | 35075 ft | 499 kts | 120° |
| 2026-05-07 03:56 | 46.69208 | 83.28945 | 35073 ft | 499 kts | 120° |
| 2026-05-07 03:56 | 46.65490 | 83.37462 | 35072 ft | 498 kts | 122° |
| 2026-05-07 03:57 | 46.61423 | 83.45635 | 35071 ft | 498 kts | 124° |
| 2026-05-07 03:57 | 46.57314 | 83.53744 | 35070 ft | 497 kts | 124° |
| 2026-05-07 03:58 | 46.53227 | 83.61839 | 35064 ft | 497 kts | 124° |
| 2026-05-07 03:58 | 46.49148 | 83.69926 | 35064 ft | 496 kts | 124° |
| 2026-05-07 03:59 | 46.45067 | 83.77994 | 35064 ft | 496 kts | 124° |
| 2026-05-07 03:59 | 46.40983 | 83.86043 | 35066 ft | 495 kts | 124° |
| 2026-05-07 04:00 | 46.36895 | 83.94076 | 35073 ft | 495 kts | 124° |
| 2026-05-07 04:00 | 46.32801 | 84.02098 | 35077 ft | 495 kts | 124° |
| 2026-05-07 04:01 | 46.28705 | 84.10103 | 35085 ft | 495 kts | 124° |
| 2026-05-07 04:01 | 46.24601 | 84.18088 | 35087 ft | 495 kts | 125° |
| 2026-05-07 04:02 | 46.20479 | 84.26038 | 35092 ft | 495 kts | 125° |
| 2026-05-07 04:02 | 46.16344 | 84.33990 | 35086 ft | 495 kts | 125° |
| 2026-05-07 04:03 | 46.12198 | 84.41945 | 35088 ft | 496 kts | 126° |
| 2026-05-07 04:03 | 46.08047 | 84.49895 | 35092 ft | 497 kts | 126° |
| 2026-05-07 04:04 | 46.03887 | 84.57840 | 35082 ft | 497 kts | 126° |
| 2026-05-07 04:04 | 45.99711 | 84.65790 | 35076 ft | 497 kts | 126° |
| 2026-05-07 04:05 | 45.95533 | 84.73719 | 35070 ft | 497 kts | 126° |
| 2026-05-07 04:05 | 45.91352 | 84.81638 | 35074 ft | 497 kts | 127° |
| 2026-05-07 04:06 | 45.87165 | 84.89539 | 35066 ft | 497 kts | 127° |
| 2026-05-07 04:06 | 45.82977 | 84.97426 | 35067 ft | 496 kts | 127° |
| 2026-05-07 04:07 | 45.78788 | 85.05290 | 35062 ft | 496 kts | 127° |
| 2026-05-07 04:07 | 45.74600 | 85.13135 | 35065 ft | 495 kts | 127° |
| 2026-05-07 04:08 | 45.70408 | 85.20963 | 35062 ft | 495 kts | 127° |
| 2026-05-07 04:08 | 45.66221 | 85.28784 | 35061 ft | 495 kts | 127° |
| 2026-05-07 04:09 | 45.62042 | 85.36602 | 35058 ft | 495 kts | 127° |
| 2026-05-07 04:09 | 45.57858 | 85.44411 | 35062 ft | 495 kts | 127° |
| 2026-05-07 04:10 | 45.53661 | 85.52220 | 35059 ft | 495 kts | 127° |
| 2026-05-07 04:10 | 45.49461 | 85.60009 | 35064 ft | 496 kts | 127° |
| 2026-05-07 04:11 | 45.45252 | 85.67794 | 35064 ft | 496 kts | 127° |
| 2026-05-07 04:11 | 45.41041 | 85.75564 | 35069 ft | 496 kts | 127° |
| 2026-05-07 04:12 | 45.36822 | 85.83325 | 35065 ft | 496 kts | 127° |
| 2026-05-07 04:12 | 45.32599 | 85.91073 | 35067 ft | 495 kts | 128° |
| 2026-05-07 04:13 | 45.28373 | 85.98806 | 35058 ft | 495 kts | 128° |
| 2026-05-07 04:13 | 45.24141 | 86.06526 | 35069 ft | 495 kts | 128° |
| 2026-05-07 04:14 | 45.19911 | 86.14224 | 35068 ft | 495 kts | 128° |
| 2026-05-07 04:14 | 45.15676 | 86.21909 | 35075 ft | 494 kts | 128° |
| 2026-05-07 04:15 | 45.11438 | 86.29579 | 35076 ft | 494 kts | 128° |
| 2026-05-07 04:15 | 45.07194 | 86.37241 | 35069 ft | 494 kts | 128° |
| 2026-05-07 04:16 | 45.02954 | 86.44874 | 35072 ft | 494 kts | 128° |
| 2026-05-07 04:16 | 44.98707 | 86.52498 | 35081 ft | 493 kts | 128° |
| 2026-05-07 04:17 | 44.94459 | 86.60105 | 35078 ft | 493 kts | 128° |
| 2026-05-07 04:17 | 44.90210 | 86.67694 | 35080 ft | 493 kts | 128° |
| 2026-05-07 04:18 | 44.85954 | 86.75281 | 35083 ft | 493 kts | 128° |
| 2026-05-07 04:18 | 44.81692 | 86.82832 | 35082 ft | 492 kts | 129° |
| 2026-05-07 04:19 | 44.77376 | 86.90322 | 35083 ft | 492 kts | 129° |
| 2026-05-07 04:19 | 44.73064 | 86.97795 | 35083 ft | 491 kts | 129° |
| 2026-05-07 04:20 | 44.68762 | 87.05258 | 35082 ft | 491 kts | 129° |
| 2026-05-07 04:20 | 44.64463 | 87.12707 | 35089 ft | 490 kts | 129° |
| 2026-05-07 04:21 | 44.58012 | 87.23855 | 35084 ft | 490 kts | 129° |
| 2026-05-07 04:21 | 44.53733 | 87.31269 | 35086 ft | 489 kts | 127° |
| 2026-05-07 04:22 | 44.50264 | 87.37626 | 35084 ft | 489 kts | 126° |
| 2026-05-07 04:22 | 44.46165 | 87.45229 | 35084 ft | 489 kts | 126° |
| 2026-05-07 04:23 | 44.42043 | 87.52785 | 35081 ft | 489 kts | 127° |
| 2026-05-07 04:23 | 44.37901 | 87.60323 | 35085 ft | 489 kts | 127° |
| 2026-05-07 04:24 | 44.33753 | 87.67857 | 35085 ft | 488 kts | 127° |
| 2026-05-07 04:24 | 44.29652 | 87.75411 | 35085 ft | 488 kts | 126° |
| 2026-05-07 04:25 | 44.25580 | 87.83001 | 35084 ft | 488 kts | 126° |
| 2026-05-07 04:25 | 44.21500 | 87.90556 | 35098 ft | 488 kts | 126° |
| 2026-05-07 04:26 | 44.18328 | 87.98678 | 35110 ft | 477 kts | 99° |
| 2026-05-07 04:26 | 44.18048 | 88.03266 | 35109 ft | 475 kts | 85° |
| 2026-05-07 04:26 | 44.18564 | 88.07781 | 35110 ft | 470 kts | 75° |
| 2026-05-07 04:27 | 44.20045 | 88.16708 | 35117 ft | 475 kts | 76° |
| 2026-05-07 04:27 | 44.21425 | 88.25760 | 35116 ft | 480 kts | 77° |
| 2026-05-07 04:28 | 44.22779 | 88.34903 | 35108 ft | 482 kts | 77° |
| 2026-05-07 04:28 | 44.24125 | 88.44063 | 35096 ft | 482 kts | 77° |
| 2026-05-07 04:29 | 44.25463 | 88.53208 | 35085 ft | 480 kts | 77° |
| 2026-05-07 04:29 | 44.26790 | 88.62312 | 35087 ft | 478 kts | 77° |
| 2026-05-07 04:30 | 44.28104 | 88.71384 | 35083 ft | 476 kts | 77° |
| 2026-05-07 04:30 | 44.29406 | 88.80420 | 35082 ft | 475 kts | 77° |
| 2026-05-07 04:31 | 44.30701 | 88.89461 | 35071 ft | 474 kts | 77° |
| 2026-05-07 04:31 | 44.31986 | 88.98488 | 35081 ft | 474 kts | 77° |
| 2026-05-07 04:32 | 44.33273 | 89.07588 | 35078 ft | 475 kts | 77° |
| 2026-05-07 04:32 | 44.34547 | 89.16638 | 35068 ft | 475 kts | 77° |
| 2026-05-07 04:33 | 44.35814 | 89.25704 | 35068 ft | 475 kts | 77° |
| 2026-05-07 04:33 | 44.37074 | 89.34774 | 35074 ft | 476 kts | 77° |
| 2026-05-07 04:34 | 44.38329 | 89.43859 | 35071 ft | 476 kts | 77° |
| 2026-05-07 04:34 | 44.39577 | 89.52952 | 35072 ft | 476 kts | 77° |
| 2026-05-07 04:35 | 44.40815 | 89.62038 | 35070 ft | 475 kts | 78° |
| 2026-05-07 04:35 | 44.41059 | 89.71206 | 35075 ft | 478 kts | 95° |
| 2026-05-07 04:36 | 44.39524 | 89.80265 | 35078 ft | 480 kts | 106° |
| 2026-05-07 04:36 | 44.37483 | 89.89241 | 35070 ft | 482 kts | 105° |
| 2026-05-07 04:37 | 44.35505 | 89.98193 | 35069 ft | 482 kts | 105° |
| 2026-05-07 04:37 | 44.34525 | 90.02677 | 34966 ft | 485 kts | 107° |
| 2026-05-07 04:37 | 44.33534 | 90.07202 | 35035 ft | 488 kts | 107° |
| 2026-05-07 04:38 | 44.31529 | 90.16329 | 35071 ft | 495 kts | 107° |
| 2026-05-07 04:38 | 44.29503 | 90.25503 | 35065 ft | 495 kts | 107° |
| 2026-05-07 04:39 | 44.27470 | 90.34673 | 35067 ft | 494 kts | 107° |
| 2026-05-07 04:39 | 44.25431 | 90.43821 | 35070 ft | 493 kts | 107° |
| 2026-05-07 04:40 | 44.23394 | 90.52925 | 35071 ft | 491 kts | 107° |
| 2026-05-07 04:40 | 44.21354 | 90.62005 | 35072 ft | 490 kts | 107° |
| 2026-05-07 04:41 | 44.19308 | 90.71069 | 35076 ft | 490 kts | 107° |
| 2026-05-07 04:41 | 44.17260 | 90.80107 | 35077 ft | 489 kts | 107° |
| 2026-05-07 04:42 | 44.15204 | 90.89147 | 35081 ft | 489 kts | 107° |
| 2026-05-07 04:42 | 44.13141 | 90.98182 | 35083 ft | 490 kts | 107° |
| 2026-05-07 04:43 | 44.11072 | 91.07213 | 35084 ft | 490 kts | 107° |
| 2026-05-07 04:43 | 44.09002 | 91.16253 | 35085 ft | 490 kts | 107° |
| 2026-05-07 04:44 | 44.06927 | 91.25293 | 35095 ft | 490 kts | 107° |
| 2026-05-07 04:44 | 44.04845 | 91.34328 | 35092 ft | 491 kts | 107° |
| 2026-05-07 04:45 | 44.02754 | 91.43359 | 35104 ft | 491 kts | 107° |
| 2026-05-07 04:45 | 44.00633 | 91.52365 | 35108 ft | 491 kts | 108° |
| 2026-05-07 04:46 | 43.98493 | 91.61368 | 35112 ft | 491 kts | 108° |
| 2026-05-07 04:46 | 43.96346 | 91.70378 | 35122 ft | 491 kts | 108° |
| 2026-05-07 04:47 | 43.94201 | 91.79375 | 35121 ft | 491 kts | 108° |
| 2026-05-07 04:47 | 43.92047 | 91.88356 | 35131 ft | 491 kts | 108° |
| 2026-05-07 04:48 | 43.89886 | 91.97335 | 35134 ft | 491 kts | 108° |
| 2026-05-07 04:48 | 43.87719 | 92.06309 | 35138 ft | 491 kts | 108° |
| 2026-05-07 04:49 | 43.85542 | 92.15276 | 35143 ft | 491 kts | 108° |
| 2026-05-07 04:49 | 43.83363 | 92.24228 | 35139 ft | 491 kts | 108° |
| 2026-05-07 04:50 | 43.81176 | 92.33179 | 35138 ft | 491 kts | 108° |
| 2026-05-07 04:50 | 43.78978 | 92.42132 | 35138 ft | 490 kts | 108° |
| 2026-05-07 04:51 | 43.76780 | 92.51055 | 35136 ft | 490 kts | 108° |
| 2026-05-07 04:51 | 43.74574 | 92.59974 | 35135 ft | 490 kts | 108° |
| 2026-05-07 04:52 | 43.72363 | 92.68883 | 35131 ft | 490 kts | 108° |
| 2026-05-07 04:52 | 43.70147 | 92.77777 | 35136 ft | 490 kts | 108° |
| 2026-05-07 04:53 | 43.67923 | 92.86664 | 35143 ft | 489 kts | 108° |
| 2026-05-07 04:53 | 43.65695 | 92.95541 | 35147 ft | 489 kts | 108° |
| 2026-05-07 04:54 | 43.63492 | 93.04429 | 35154 ft | 488 kts | 107° |
| 2026-05-07 04:54 | 43.61376 | 93.13329 | 35158 ft | 488 kts | 107° |
| 2026-05-07 04:55 | 43.59261 | 93.22225 | 35163 ft | 488 kts | 107° |
| 2026-05-07 04:55 | 43.57474 | 93.29673 | 35173 ft | 488 kts | 107° |
| 2026-05-07 04:56 | 43.55326 | 93.38569 | 35174 ft | 488 kts | 108° |
| 2026-05-07 04:56 | 43.53172 | 93.47444 | 35176 ft | 488 kts | 108° |
| 2026-05-07 04:57 | 43.51011 | 93.56306 | 35178 ft | 488 kts | 108° |
| 2026-05-07 04:57 | 43.48843 | 93.65175 | 35177 ft | 488 kts | 108° |
| 2026-05-07 04:58 | 43.46669 | 93.74032 | 35183 ft | 488 kts | 108° |
| 2026-05-07 04:58 | 43.44486 | 93.82894 | 35179 ft | 489 kts | 108° |
| 2026-05-07 04:59 | 43.42294 | 93.91751 | 35191 ft | 489 kts | 108° |
| 2026-05-07 04:59 | 43.40092 | 94.00619 | 35183 ft | 490 kts | 108° |
| 2026-05-07 05:00 | 43.37878 | 94.09502 | 35182 ft | 491 kts | 108° |
| 2026-05-07 05:00 | 43.35659 | 94.18369 | 35182 ft | 491 kts | 108° |
| 2026-05-07 05:01 | 43.33431 | 94.27241 | 35179 ft | 491 kts | 108° |
| 2026-05-07 05:01 | 43.31196 | 94.36106 | 35175 ft | 491 kts | 108° |
| 2026-05-07 05:02 | 43.28955 | 94.44958 | 35172 ft | 491 kts | 109° |
| 2026-05-07 05:02 | 43.26708 | 94.53802 | 35162 ft | 490 kts | 109° |
| 2026-05-07 05:03 | 43.24457 | 94.62630 | 35156 ft | 490 kts | 109° |
| 2026-05-07 05:03 | 43.22199 | 94.71451 | 35147 ft | 490 kts | 109° |
| 2026-05-07 05:04 | 43.19933 | 94.80270 | 35130 ft | 490 kts | 109° |
| 2026-05-07 05:04 | 43.17662 | 94.89081 | 35120 ft | 490 kts | 109° |
| 2026-05-07 05:05 | 43.15387 | 94.97876 | 35111 ft | 490 kts | 109° |
| 2026-05-07 05:05 | 43.12716 | 95.06416 | 35093 ft | 488 kts | 124° |
| 2026-05-07 05:06 | 43.10603 | 95.10033 | 35104 ft | 487 kts | 135° |
| 2026-05-07 05:06 | 43.08058 | 95.13085 | 35093 ft | 485 kts | 146° |
| 2026-05-07 05:06 | 43.02418 | 95.18118 | 35093 ft | 486 kts | 147° |
| 2026-05-07 05:07 | 42.96793 | 95.23283 | 35094 ft | 489 kts | 146° |
| 2026-05-07 05:07 | 42.91159 | 95.28523 | 35084 ft | 491 kts | 146° |
| 2026-05-07 05:08 | 42.85509 | 95.33770 | 35079 ft | 491 kts | 146° |
| 2026-05-07 05:08 | 42.79857 | 95.38997 | 35080 ft | 491 kts | 146° |
| 2026-05-07 05:09 | 42.74213 | 95.44202 | 35076 ft | 489 kts | 147° |
| 2026-05-07 05:09 | 42.68582 | 95.49382 | 35075 ft | 488 kts | 147° |
| 2026-05-07 05:10 | 42.62961 | 95.54542 | 35075 ft | 487 kts | 147° |
| 2026-05-07 05:10 | 42.57340 | 95.59692 | 35080 ft | 487 kts | 147° |
| 2026-05-07 05:11 | 42.51725 | 95.64824 | 35080 ft | 486 kts | 147° |
| 2026-05-07 05:11 | 42.46110 | 95.69945 | 35084 ft | 486 kts | 147° |
| 2026-05-07 05:12 | 42.40495 | 95.75058 | 35092 ft | 486 kts | 147° |
| 2026-05-07 05:12 | 42.34854 | 95.80224 | 35097 ft | 487 kts | 146° |
| 2026-05-07 05:13 | 42.29271 | 95.85419 | 35103 ft | 487 kts | 146° |
| 2026-05-07 05:13 | 42.23673 | 95.90616 | 35109 ft | 488 kts | 147° |
| 2026-05-07 05:14 | 42.18068 | 95.95797 | 35115 ft | 489 kts | 147° |
| 2026-05-07 05:14 | 42.12451 | 96.00972 | 35117 ft | 489 kts | 147° |
| 2026-05-07 05:15 | 42.06820 | 96.06149 | 35123 ft | 490 kts | 147° |
| 2026-05-07 05:15 | 42.01184 | 96.11322 | 35130 ft | 491 kts | 148° |
| 2026-05-07 05:16 | 41.95527 | 96.16504 | 35128 ft | 492 kts | 148° |
| 2026-05-07 05:16 | 41.90124 | 96.22105 | 35121 ft | 494 kts | 131° |
| 2026-05-07 05:17 | 41.88345 | 96.26056 | 35133 ft | 499 kts | 112° |
| 2026-05-07 05:17 | 41.87439 | 96.30561 | 35141 ft | 503 kts | 97° |
| 2026-05-07 05:17 | 41.87378 | 96.35250 | 35131 ft | 502 kts | 85° |
| 2026-05-07 05:17 | 41.87674 | 96.39929 | 35131 ft | 505 kts | 85° |
| 2026-05-07 05:18 | 41.88197 | 96.49404 | 35131 ft | 511 kts | 86° |
| 2026-05-07 05:18 | 41.88641 | 96.58973 | 35124 ft | 515 kts | 86° |
| 2026-05-07 05:19 | 41.89046 | 96.68591 | 35119 ft | 516 kts | 87° |
| 2026-05-07 05:19 | 41.89436 | 96.78192 | 35104 ft | 514 kts | 87° |
| 2026-05-07 05:20 | 41.89821 | 96.87748 | 35106 ft | 511 kts | 87° |
| 2026-05-07 05:20 | 41.90199 | 96.97262 | 35104 ft | 509 kts | 87° |
| 2026-05-07 05:21 | 41.90748 | 97.11464 | 35105 ft | 508 kts | 87° |
| 2026-05-07 05:22 | 41.91105 | 97.20939 | 35108 ft | 508 kts | 87° |
| 2026-05-07 05:22 | 41.91455 | 97.30431 | 35103 ft | 510 kts | 87° |
| 2026-05-07 05:23 | 41.91798 | 97.39958 | 35097 ft | 511 kts | 87° |
| 2026-05-07 05:23 | 41.92134 | 97.49502 | 35092 ft | 512 kts | 87° |
| 2026-05-07 05:24 | 41.92462 | 97.59061 | 35093 ft | 513 kts | 87° |
| 2026-05-07 05:24 | 41.92783 | 97.68628 | 35086 ft | 513 kts | 87° |
| 2026-05-07 05:25 | 41.93096 | 97.78208 | 35089 ft | 513 kts | 87° |
| 2026-05-07 05:25 | 41.93401 | 97.87780 | 35090 ft | 513 kts | 87° |
| 2026-05-07 05:26 | 41.93697 | 97.97347 | 35085 ft | 513 kts | 88° |
| 2026-05-07 05:26 | 41.93986 | 98.06908 | 35084 ft | 512 kts | 88° |
| 2026-05-07 05:27 | 41.94267 | 98.16471 | 35086 ft | 512 kts | 88° |
| 2026-05-07 05:27 | 41.94540 | 98.26031 | 35084 ft | 512 kts | 88° |
| 2026-05-07 05:28 | 41.94804 | 98.35585 | 35077 ft | 511 kts | 88° |
| 2026-05-07 05:28 | 41.95060 | 98.45123 | 35078 ft | 511 kts | 88° |
| 2026-05-07 05:29 | 41.95308 | 98.54656 | 35072 ft | 511 kts | 88° |
| 2026-05-07 05:29 | 41.95510 | 98.62642 | 35073 ft | 510 kts | 88° |
| 2026-05-07 05:30 | 41.95744 | 98.72178 | 35068 ft | 510 kts | 88° |
| 2026-05-07 05:30 | 41.95970 | 98.81718 | 35068 ft | 510 kts | 88° |
| 2026-05-07 05:31 | 41.96188 | 98.91248 | 35068 ft | 511 kts | 88° |
| 2026-05-07 05:31 | 41.96398 | 99.00792 | 35067 ft | 511 kts | 88° |
| 2026-05-07 05:32 | 41.96600 | 99.10343 | 35073 ft | 511 kts | 88° |
| 2026-05-07 05:32 | 41.96795 | 99.19895 | 35064 ft | 511 kts | 88° |
| 2026-05-07 05:33 | 41.96981 | 99.29448 | 35064 ft | 511 kts | 88° |
| 2026-05-07 05:33 | 41.97160 | 99.38992 | 35051 ft | 510 kts | 88° |
| 2026-05-07 05:34 | 41.97330 | 99.48525 | 35047 ft | 510 kts | 88° |
| 2026-05-07 05:34 | 41.97493 | 99.58040 | 35054 ft | 509 kts | 88° |
| 2026-05-07 05:35 | 41.97646 | 99.67546 | 35049 ft | 509 kts | 89° |
| 2026-05-07 05:35 | 41.97792 | 99.77044 | 35051 ft | 509 kts | 89° |
| 2026-05-07 05:36 | 41.97931 | 99.86553 | 35057 ft | 509 kts | 89° |
| 2026-05-07 05:36 | 41.98062 | 99.96063 | 35057 ft | 509 kts | 89° |
| 2026-05-07 05:37 | 41.98185 | 100.05580 | 35048 ft | 510 kts | 89° |
| 2026-05-07 05:37 | 41.98300 | 100.15114 | 35061 ft | 510 kts | 89° |
| 2026-05-07 05:38 | 41.98408 | 100.24656 | 35062 ft | 511 kts | 89° |
| 2026-05-07 05:38 | 41.98507 | 100.34215 | 35058 ft | 511 kts | 89° |
| 2026-05-07 05:39 | 41.98599 | 100.43779 | 35056 ft | 511 kts | 89° |
| 2026-05-07 05:39 | 41.98683 | 100.53339 | 35053 ft | 512 kts | 89° |
| 2026-05-07 05:40 | 41.98759 | 100.62915 | 35053 ft | 512 kts | 89° |
| 2026-05-07 05:40 | 41.98827 | 100.72489 | 35060 ft | 512 kts | 89° |
| 2026-05-07 05:41 | 41.98888 | 100.82049 | 35054 ft | 511 kts | 89° |
| 2026-05-07 05:41 | 41.98941 | 100.91613 | 35063 ft | 511 kts | 89° |
| 2026-05-07 05:42 | 41.98845 | 101.01176 | 35051 ft | 512 kts | 95° |
| 2026-05-07 05:42 | 41.97518 | 101.10550 | 35067 ft | 511 kts | 107° |
| 2026-05-07 05:43 | 41.95110 | 101.19524 | 35068 ft | 511 kts | 111° |
| 2026-05-07 05:43 | 41.92615 | 101.28471 | 35064 ft | 512 kts | 111° |
| 2026-05-07 05:44 | 41.90151 | 101.37442 | 35059 ft | 513 kts | 111° |
| 2026-05-07 05:44 | 41.87686 | 101.46450 | 35065 ft | 514 kts | 111° |
| 2026-05-07 05:45 | 41.85212 | 101.55453 | 35061 ft | 515 kts | 111° |
| 2026-05-07 05:45 | 41.82722 | 101.64478 | 35065 ft | 516 kts | 111° |
| 2026-05-07 05:46 | 41.80218 | 101.73513 | 35063 ft | 517 kts | 111° |
| 2026-05-07 05:46 | 41.77705 | 101.82546 | 35064 ft | 518 kts | 111° |
| 2026-05-07 05:47 | 41.75179 | 101.91595 | 35064 ft | 519 kts | 111° |
| 2026-05-07 05:47 | 41.72641 | 102.00654 | 35066 ft | 519 kts | 111° |
| 2026-05-07 05:48 | 41.70096 | 102.09706 | 35064 ft | 520 kts | 111° |
| 2026-05-07 05:48 | 41.67543 | 102.18756 | 35067 ft | 520 kts | 112° |
| 2026-05-07 05:49 | 41.64979 | 102.27810 | 35073 ft | 521 kts | 112° |
| 2026-05-07 05:49 | 41.62407 | 102.36862 | 35070 ft | 521 kts | 112° |
| 2026-05-07 05:50 | 41.59823 | 102.45923 | 35067 ft | 522 kts | 112° |
| 2026-05-07 05:50 | 41.57226 | 102.54999 | 35070 ft | 523 kts | 112° |
| 2026-05-07 05:51 | 41.54621 | 102.64076 | 35072 ft | 524 kts | 112° |
| 2026-05-07 05:51 | 41.52009 | 102.73178 | 35068 ft | 525 kts | 111° |
| 2026-05-07 05:52 | 41.49476 | 102.82330 | 35066 ft | 526 kts | 110° |
| 2026-05-07 05:52 | 41.47136 | 102.91606 | 35071 ft | 527 kts | 109° |
| 2026-05-07 05:53 | 41.44795 | 103.00877 | 35070 ft | 528 kts | 110° |
| 2026-05-07 05:53 | 41.42252 | 103.10137 | 35069 ft | 528 kts | 111° |
| 2026-05-07 05:54 | 41.39659 | 103.19299 | 35070 ft | 529 kts | 111° |
| 2026-05-07 05:54 | 41.37075 | 103.28480 | 35070 ft | 530 kts | 111° |
| 2026-05-07 05:55 | 41.34494 | 103.37695 | 35073 ft | 531 kts | 111° |
| 2026-05-07 05:55 | 41.31927 | 103.46844 | 35077 ft | 532 kts | 111° |
| 2026-05-07 05:56 | 41.29330 | 103.56060 | 35071 ft | 532 kts | 111° |
| 2026-05-07 05:56 | 41.26724 | 103.65275 | 35071 ft | 533 kts | 111° |
| 2026-05-07 05:57 | 41.24104 | 103.74498 | 35077 ft | 533 kts | 111° |
| 2026-05-07 05:57 | 41.21477 | 103.83713 | 35069 ft | 534 kts | 111° |
| 2026-05-07 05:58 | 41.18841 | 103.92929 | 35067 ft | 534 kts | 111° |
| 2026-05-07 05:58 | 41.16193 | 104.02155 | 35077 ft | 535 kts | 112° |
| 2026-05-07 05:59 | 41.13533 | 104.11387 | 35076 ft | 536 kts | 112° |
| 2026-05-07 05:59 | 41.10861 | 104.20630 | 35080 ft | 537 kts | 112° |
| 2026-05-07 06:00 | 41.08181 | 104.29868 | 35076 ft | 538 kts | 112° |
| 2026-05-07 06:00 | 41.05485 | 104.39130 | 35082 ft | 539 kts | 112° |
| 2026-05-07 06:01 | 41.02780 | 104.48399 | 35081 ft | 539 kts | 112° |
| 2026-05-07 06:01 | 41.00156 | 104.57725 | 35093 ft | 540 kts | 111° |
| 2026-05-07 06:02 | 40.97584 | 104.67074 | 35085 ft | 541 kts | 110° |
| 2026-05-07 06:02 | 40.94994 | 104.76423 | 35078 ft | 541 kts | 111° |
| 2026-05-07 06:03 | 40.92378 | 104.85771 | 35087 ft | 542 kts | 111° |
| 2026-05-07 06:03 | 40.90192 | 104.93540 | 35094 ft | 542 kts | 111° |
| 2026-05-07 06:04 | 40.87555 | 105.02877 | 35087 ft | 543 kts | 111° |
| 2026-05-07 06:04 | 40.84907 | 105.12227 | 35084 ft | 543 kts | 111° |
| 2026-05-07 06:05 | 40.82254 | 105.21563 | 35095 ft | 543 kts | 111° |
| 2026-05-07 06:05 | 40.79590 | 105.30899 | 35095 ft | 544 kts | 111° |
| 2026-05-07 06:06 | 40.76917 | 105.40238 | 35095 ft | 544 kts | 111° |
| 2026-05-07 06:06 | 40.74215 | 105.49644 | 35105 ft | 545 kts | 111° |
| 2026-05-07 06:07 | 40.71535 | 105.58936 | 35111 ft | 546 kts | 111° |
| 2026-05-07 06:07 | 40.68808 | 105.68359 | 35117 ft | 547 kts | 111° |
| 2026-05-07 06:08 | 40.66102 | 105.77675 | 35123 ft | 548 kts | 111° |
| 2026-05-07 06:08 | 40.63368 | 105.87056 | 35131 ft | 549 kts | 111° |
| 2026-05-07 06:09 | 40.60623 | 105.96436 | 35127 ft | 550 kts | 111° |
| 2026-05-07 06:09 | 40.57851 | 106.05880 | 35138 ft | 550 kts | 111° |
| 2026-05-07 06:10 | 40.55087 | 106.15258 | 35130 ft | 550 kts | 112° |
| 2026-05-07 06:10 | 40.52315 | 106.24634 | 35144 ft | 550 kts | 112° |
| 2026-05-07 06:11 | 40.49533 | 106.34009 | 35145 ft | 551 kts | 112° |
| 2026-05-07 06:11 | 40.46741 | 106.43383 | 35135 ft | 551 kts | 112° |
| 2026-05-07 06:12 | 40.43939 | 106.52762 | 35131 ft | 552 kts | 112° |
| 2026-05-07 06:12 | 40.41126 | 106.62140 | 35139 ft | 552 kts | 112° |
| 2026-05-07 06:13 | 40.38303 | 106.71522 | 35126 ft | 553 kts | 112° |
| 2026-05-07 06:13 | 40.35469 | 106.80912 | 35135 ft | 554 kts | 112° |
| 2026-05-07 06:14 | 40.32698 | 106.90331 | 35128 ft | 553 kts | 106° |
| 2026-05-07 06:14 | 40.31561 | 107.00231 | 35159 ft | 549 kts | 87° |
| 2026-05-07 06:15 | 40.32382 | 107.10082 | 35168 ft | 541 kts | 75° |
| 2026-05-07 06:15 | 40.33731 | 107.19820 | 35147 ft | 544 kts | 76° |
| 2026-05-07 06:16 | 40.34979 | 107.29630 | 35143 ft | 546 kts | 76° |
| 2026-05-07 06:16 | 40.36180 | 107.39464 | 35141 ft | 546 kts | 76° |
| 2026-05-07 06:17 | 40.37374 | 107.49294 | 35139 ft | 545 kts | 76° |
| 2026-05-07 06:17 | 40.38564 | 107.59104 | 35136 ft | 544 kts | 76° |
| 2026-05-07 06:18 | 40.39747 | 107.68902 | 35142 ft | 542 kts | 76° |
| 2026-05-07 06:18 | 40.40916 | 107.78663 | 35147 ft | 541 kts | 77° |
| 2026-05-07 06:19 | 40.42075 | 107.88414 | 35148 ft | 541 kts | 77° |
| 2026-05-07 06:19 | 40.43226 | 107.98161 | 35152 ft | 540 kts | 77° |
| 2026-05-07 06:20 | 40.44359 | 108.07918 | 35154 ft | 540 kts | 77° |
| 2026-05-07 06:20 | 40.45476 | 108.17662 | 35157 ft | 540 kts | 77° |
| 2026-05-07 06:21 | 40.46588 | 108.27430 | 35160 ft | 541 kts | 77° |
| 2026-05-07 06:21 | 40.47695 | 108.37212 | 35159 ft | 542 kts | 77° |
| 2026-05-07 06:22 | 40.48794 | 108.46997 | 35171 ft | 542 kts | 77° |
| 2026-05-07 06:22 | 40.50433 | 108.61732 | 35166 ft | 543 kts | 77° |
| 2026-05-07 06:23 | 40.51515 | 108.71565 | 35170 ft | 544 kts | 77° |
| 2026-05-07 06:23 | 40.52596 | 108.81469 | 35172 ft | 544 kts | 77° |
| 2026-05-07 06:24 | 40.53661 | 108.91309 | 35169 ft | 544 kts | 77° |
| 2026-05-07 06:24 | 40.54718 | 109.01147 | 35171 ft | 543 kts | 77° |
| 2026-05-07 06:25 | 40.55767 | 109.10993 | 35169 ft | 543 kts | 77° |
| 2026-05-07 06:25 | 40.56807 | 109.20834 | 35176 ft | 543 kts | 77° |
| 2026-05-07 06:26 | 40.57838 | 109.30671 | 35177 ft | 543 kts | 77° |
| 2026-05-07 06:26 | 40.58860 | 109.40508 | 35188 ft | 543 kts | 77° |
| 2026-05-07 06:27 | 40.59874 | 109.50353 | 35194 ft | 543 kts | 77° |
| 2026-05-07 06:27 | 40.60880 | 109.60197 | 35194 ft | 543 kts | 77° |
| 2026-05-07 06:28 | 40.61878 | 109.70050 | 35195 ft | 543 kts | 77° |
| 2026-05-07 06:28 | 40.62868 | 109.79912 | 35204 ft | 543 kts | 77° |
| 2026-05-07 06:29 | 40.63849 | 109.89772 | 35204 ft | 543 kts | 77° |
| 2026-05-07 06:29 | 40.64737 | 109.99661 | 35198 ft | 546 kts | 82° |
| 2026-05-07 06:30 | 40.64715 | 110.09710 | 35212 ft | 549 kts | 87° |
| 2026-05-07 06:30 | 40.64585 | 110.19760 | 35208 ft | 549 kts | 86° |
| 2026-05-07 06:31 | 40.64515 | 110.29812 | 35216 ft | 549 kts | 86° |
| 2026-05-07 06:31 | 40.64451 | 110.39866 | 35213 ft | 549 kts | 86° |
| 2026-05-07 06:32 | 40.64372 | 110.49921 | 35212 ft | 549 kts | 86° |
| 2026-05-07 06:32 | 40.64279 | 110.59975 | 35217 ft | 549 kts | 86° |
| 2026-05-07 06:33 | 40.64181 | 110.70015 | 35208 ft | 547 kts | 86° |
| 2026-05-07 06:33 | 40.64080 | 110.80032 | 35209 ft | 547 kts | 86° |
| 2026-05-07 06:34 | 40.63965 | 110.90048 | 35216 ft | 547 kts | 87° |
| 2026-05-07 06:34 | 40.63843 | 111.00060 | 35225 ft | 547 kts | 87° |
| 2026-05-07 06:35 | 40.63713 | 111.10076 | 35233 ft | 547 kts | 87° |
| 2026-05-07 06:35 | 40.63576 | 111.20093 | 35237 ft | 548 kts | 87° |
| 2026-05-07 06:36 | 40.63428 | 111.30124 | 35239 ft | 547 kts | 87° |
| 2026-05-07 06:36 | 40.63274 | 111.40147 | 35233 ft | 547 kts | 87° |
| 2026-05-07 06:37 | 40.63111 | 111.50161 | 35237 ft | 547 kts | 87° |
| 2026-05-07 06:37 | 40.62969 | 111.58547 | 35237 ft | 547 kts | 87° |
| 2026-05-07 06:38 | 40.62790 | 111.68545 | 35241 ft | 546 kts | 88° |
| 2026-05-07 06:38 | 40.62604 | 111.78542 | 35243 ft | 546 kts | 88° |
| 2026-05-07 06:39 | 40.62410 | 111.88539 | 35245 ft | 546 kts | 88° |
| 2026-05-07 06:39 | 40.62303 | 111.98522 | 35244 ft | 546 kts | 88° |
| 2026-05-07 06:40 | 40.61989 | 112.08533 | 35240 ft | 547 kts | 88° |
| 2026-05-07 06:40 | 40.61746 | 112.18531 | 35241 ft | 547 kts | 88° |
| 2026-05-07 06:41 | 40.61530 | 112.28536 | 35238 ft | 547 kts | 88° |
| 2026-05-07 06:41 | 40.61286 | 112.38540 | 35253 ft | 546 kts | 88° |
| 2026-05-07 06:42 | 40.61035 | 112.48545 | 35223 ft | 546 kts | 88° |
| 2026-05-07 06:42 | 40.60619 | 112.58539 | 35224 ft | 548 kts | 91° |
| 2026-05-07 06:43 | 40.59967 | 112.68529 | 35218 ft | 547 kts | 91° |
| 2026-05-07 06:43 | 40.59322 | 112.78504 | 35215 ft | 548 kts | 93° |
| 2026-05-07 06:44 | 40.58501 | 112.88480 | 35212 ft | 548 kts | 92° |
| 2026-05-07 06:44 | 40.57847 | 112.98481 | 35205 ft | 548 kts | 91° |
| 2026-05-07 06:45 | 40.57213 | 113.08470 | 35202 ft | 548 kts | 91° |
| 2026-05-07 06:45 | 40.56543 | 113.18450 | 35199 ft | 547 kts | 92° |
| 2026-05-07 06:46 | 40.55850 | 113.28427 | 35200 ft | 548 kts | 92° |
| 2026-05-07 06:46 | 40.55148 | 113.38411 | 35189 ft | 548 kts | 92° |
| 2026-05-07 06:47 | 40.54439 | 113.48391 | 35195 ft | 549 kts | 92° |
| 2026-05-07 06:47 | 40.53722 | 113.58379 | 35184 ft | 549 kts | 92° |
| 2026-05-07 06:48 | 40.52995 | 113.68386 | 35181 ft | 549 kts | 92° |
| 2026-05-07 06:48 | 40.52258 | 113.78384 | 35173 ft | 550 kts | 93° |
| 2026-05-07 06:49 | 40.51515 | 113.88377 | 35166 ft | 549 kts | 93° |
| 2026-05-07 06:49 | 40.50762 | 113.98383 | 35172 ft | 550 kts | 93° |
| 2026-05-07 06:50 | 40.50177 | 114.08399 | 35151 ft | 549 kts | 90° |
| 2026-05-07 06:50 | 40.49823 | 114.18413 | 35166 ft | 548 kts | 90° |
| 2026-05-07 06:51 | 40.49450 | 114.28424 | 35162 ft | 549 kts | 90° |
| 2026-05-07 06:51 | 40.49017 | 114.38441 | 35152 ft | 549 kts | 91° |
| 2026-05-07 06:52 | 40.48558 | 114.48458 | 35145 ft | 549 kts | 91° |
| 2026-05-07 06:52 | 40.48092 | 114.58484 | 35144 ft | 549 kts | 91° |
| 2026-05-07 06:53 | 40.47620 | 114.68500 | 35134 ft | 549 kts | 91° |
| 2026-05-07 06:53 | 40.47142 | 114.78513 | 35142 ft | 549 kts | 91° |
| 2026-05-07 06:54 | 40.46655 | 114.88522 | 35133 ft | 549 kts | 91° |
| 2026-05-07 06:54 | 40.46156 | 114.98543 | 35135 ft | 549 kts | 91° |
| 2026-05-07 06:55 | 40.45651 | 115.08555 | 35131 ft | 550 kts | 91° |
| 2026-05-07 06:55 | 40.45137 | 115.18583 | 35110 ft | 550 kts | 91° |
| 2026-05-07 06:56 | 40.44615 | 115.28589 | 35123 ft | 550 kts | 92° |
| 2026-05-07 06:56 | 40.44083 | 115.38623 | 35115 ft | 551 kts | 92° |
| 2026-05-07 06:57 | 40.43543 | 115.48656 | 35116 ft | 551 kts | 92° |
| 2026-05-07 06:57 | 40.42941 | 115.58697 | 35107 ft | 552 kts | 94° |
| 2026-05-07 06:58 | 40.42112 | 115.68722 | 35103 ft | 553 kts | 95° |
| 2026-05-07 06:58 | 40.41246 | 115.78733 | 35105 ft | 552 kts | 95° |
| 2026-05-07 06:59 | 40.40408 | 115.88751 | 35107 ft | 553 kts | 95° |
| 2026-05-07 06:59 | 40.39993 | 115.93793 | 35290 ft | 555 kts | 95° |
| 2026-05-07 06:59 | 40.39578 | 115.98816 | 35661 ft | 553 kts | 95° |
| 2026-05-07 07:00 | 40.39163 | 116.03825 | 36050 ft | 550 kts | 95° |
| 2026-05-07 07:00 | 40.38744 | 116.08810 | 36441 ft | 549 kts | 95° |
| 2026-05-07 07:00 | 40.38325 | 116.13784 | 36737 ft | 548 kts | 95° |
| 2026-05-07 07:00 | 40.37904 | 116.18748 | 36996 ft | 548 kts | 95° |
| 2026-05-07 07:01 | 40.37054 | 116.28706 | 37090 ft | 551 kts | 95° |
| 2026-05-07 07:01 | 40.36193 | 116.38676 | 37099 ft | 548 kts | 96° |
| 2026-05-07 07:02 | 40.35327 | 116.48593 | 37100 ft | 546 kts | 96° |
| 2026-05-07 07:02 | 40.34457 | 116.58484 | 37091 ft | 546 kts | 96° |
| 2026-05-07 07:03 | 40.33842 | 116.63360 | 37077 ft | 543 kts | 108° |
| 2026-05-07 07:03 | 40.32324 | 116.67866 | 37102 ft | 540 kts | 127° |
| 2026-05-07 07:03 | 40.29908 | 116.71585 | 37121 ft | 533 kts | 144° |
| 2026-05-07 07:03 | 40.26926 | 116.74430 | 37102 ft | 528 kts | 156° |
| 2026-05-07 07:04 | 40.23660 | 116.76544 | 37096 ft | 520 kts | 167° |
| 2026-05-07 07:04 | 40.20219 | 116.77705 | 37096 ft | 505 kts | 179° |
| 2026-05-07 07:04 | 40.13243 | 116.78885 | 37104 ft | 507 kts | 180° |
| 2026-05-07 07:05 | 40.06164 | 116.80146 | 37100 ft | 512 kts | 179° |
| 2026-05-07 07:05 | 39.99101 | 116.81546 | 37096 ft | 513 kts | 179° |
| 2026-05-07 07:06 | 39.92053 | 116.82974 | 37088 ft | 511 kts | 179° |
| 2026-05-07 07:06 | 39.85048 | 116.84377 | 37088 ft | 508 kts | 179° |
| 2026-05-07 07:07 | 39.78083 | 116.85765 | 37088 ft | 505 kts | 180° |
| 2026-05-07 07:07 | 39.71150 | 116.87200 | 37094 ft | 503 kts | 179° |
| 2026-05-07 07:08 | 39.64236 | 116.88645 | 37092 ft | 502 kts | 180° |
| 2026-05-07 07:08 | 39.57384 | 116.90066 | 37094 ft | 502 kts | 180° |
| 2026-05-07 07:09 | 39.50433 | 116.91500 | 37100 ft | 503 kts | 180° |
| 2026-05-07 07:09 | 39.43508 | 116.92925 | 37103 ft | 505 kts | 180° |
| 2026-05-07 07:10 | 39.36562 | 116.94354 | 37107 ft | 506 kts | 180° |
| 2026-05-07 07:10 | 39.29599 | 116.95784 | 37102 ft | 507 kts | 180° |
| 2026-05-07 07:11 | 39.23797 | 116.96973 | 37102 ft | 508 kts | 180° |
| 2026-05-07 07:11 | 39.17004 | 116.99691 | 37109 ft | 534 kts | 153° |
| 2026-05-07 07:12 | 39.14163 | 117.02886 | 37102 ft | 552 kts | 134° |
| 2026-05-07 07:12 | 39.12079 | 117.07084 | 37117 ft | 562 kts | 116° |
| 2026-05-07 07:12 | 39.10916 | 117.11907 | 37092 ft | 565 kts | 99° |
| 2026-05-07 07:12 | 39.10406 | 117.16899 | 37119 ft | 564 kts | 97° |
| 2026-05-07 07:13 | 39.09311 | 117.26931 | 37108 ft | 566 kts | 100° |
| 2026-05-07 07:13 | 39.08017 | 117.36939 | 37106 ft | 568 kts | 97° |
| 2026-05-07 07:14 | 39.07669 | 117.47095 | 37110 ft | 568 kts | 89° |
| 2026-05-07 07:14 | 39.07651 | 117.57272 | 37100 ft | 569 kts | 90° |
| 2026-05-07 07:15 | 39.07549 | 117.67444 | 37091 ft | 568 kts | 90° |
| 2026-05-07 07:15 | 39.07400 | 117.77598 | 37081 ft | 567 kts | 90° |
| 2026-05-07 07:16 | 39.07245 | 117.87751 | 37074 ft | 567 kts | 91° |
| 2026-05-07 07:16 | 39.07091 | 117.97885 | 37061 ft | 566 kts | 91° |
| 2026-05-07 07:17 | 39.06425 | 118.07956 | 37057 ft | 564 kts | 102° |
| 2026-05-07 07:17 | 39.04768 | 118.17802 | 37070 ft | 563 kts | 104° |
| 2026-05-07 07:18 | 39.03139 | 118.27657 | 37062 ft | 564 kts | 103° |
| 2026-05-07 07:18 | 39.01565 | 118.37545 | 37067 ft | 565 kts | 103° |
| 2026-05-07 07:19 | 38.99979 | 118.47464 | 37065 ft | 566 kts | 104° |
| 2026-05-07 07:19 | 38.98372 | 118.57384 | 37065 ft | 567 kts | 104° |
| 2026-05-07 07:20 | 38.96756 | 118.67315 | 37060 ft | 568 kts | 104° |
| 2026-05-07 07:20 | 38.95130 | 118.77265 | 37060 ft | 569 kts | 104° |
| 2026-05-07 07:21 | 38.93495 | 118.87210 | 37061 ft | 569 kts | 104° |
| 2026-05-07 07:21 | 38.91841 | 118.97224 | 37060 ft | 569 kts | 104° |
| 2026-05-07 07:22 | 38.90188 | 119.07164 | 37061 ft | 569 kts | 104° |
| 2026-05-07 07:22 | 38.88526 | 119.17108 | 37061 ft | 569 kts | 104° |
| 2026-05-07 07:23 | 38.86856 | 119.27049 | 37060 ft | 570 kts | 105° |
| 2026-05-07 07:23 | 38.85178 | 119.36976 | 37063 ft | 570 kts | 105° |
| 2026-05-07 07:24 | 38.83491 | 119.46905 | 37063 ft | 570 kts | 105° |
| 2026-05-07 07:24 | 38.81794 | 119.56839 | 37065 ft | 570 kts | 105° |
| 2026-05-07 07:25 | 38.79232 | 119.71738 | 37060 ft | 571 kts | 105° |
| 2026-05-07 07:26 | 38.77513 | 119.81674 | 37058 ft | 571 kts | 105° |
| 2026-05-07 07:26 | 38.75873 | 119.91647 | 37058 ft | 572 kts | 104° |
| 2026-05-07 07:27 | 38.74251 | 120.01610 | 37057 ft | 571 kts | 105° |
| 2026-05-07 07:27 | 38.72347 | 120.11436 | 37032 ft | 561 kts | 118° |
| 2026-05-07 07:27 | 38.70455 | 120.15696 | 37055 ft | 542 kts | 137° |
| 2026-05-07 07:28 | 38.67855 | 120.19042 | 37070 ft | 524 kts | 152° |
| 2026-05-07 07:28 | 38.61694 | 120.23623 | 37050 ft | 501 kts | 173° |
| 2026-05-07 07:28 | 38.58407 | 120.24774 | 37059 ft | 487 kts | 175° |
| 2026-05-07 07:29 | 38.55223 | 120.26552 | 37063 ft | 518 kts | 156° |
| 2026-05-07 07:29 | 38.52450 | 120.29680 | 37045 ft | 549 kts | 137° |
| 2026-05-07 07:29 | 38.50422 | 120.33921 | 37076 ft | 572 kts | 117° |
| 2026-05-07 07:29 | 38.49378 | 120.38862 | 37052 ft | 586 kts | 98° |
| 2026-05-07 07:30 | 38.49451 | 120.44078 | 37069 ft | 590 kts | 78° |
| 2026-05-07 07:30 | 38.50563 | 120.49078 | 37070 ft | 583 kts | 66° |
| 2026-05-07 07:30 | 38.51918 | 120.53988 | 37042 ft | 587 kts | 71° |
| 2026-05-07 07:31 | 38.53781 | 120.64167 | 37028 ft | 591 kts | 84° |
| 2026-05-07 07:31 | 38.53936 | 120.69398 | 37063 ft | 589 kts | 96° |
| 2026-05-07 07:31 | 38.53456 | 120.74572 | 37061 ft | 585 kts | 104° |
| 2026-05-07 07:32 | 38.51562 | 120.84629 | 37040 ft | 581 kts | 109° |
| 2026-05-07 07:32 | 38.49625 | 120.94648 | 37037 ft | 581 kts | 107° |
| 2026-05-07 07:33 | 38.47951 | 121.04742 | 37029 ft | 580 kts | 105° |
| 2026-05-07 07:33 | 38.46306 | 121.14812 | 37039 ft | 578 kts | 106° |
| 2026-05-07 07:34 | 38.44739 | 121.24877 | 37038 ft | 578 kts | 105° |
| 2026-05-07 07:34 | 38.43138 | 121.34914 | 37023 ft | 577 kts | 107° |
| 2026-05-07 07:35 | 38.41458 | 121.44915 | 37018 ft | 577 kts | 106° |
| 2026-05-07 07:35 | 38.39796 | 121.54940 | 37007 ft | 577 kts | 107° |
| 2026-05-07 07:36 | 38.38127 | 121.64952 | 37008 ft | 578 kts | 107° |
| 2026-05-07 07:36 | 38.36448 | 121.74963 | 37001 ft | 578 kts | 107° |
| 2026-05-07 07:37 | 38.34759 | 121.84976 | 36995 ft | 578 kts | 107° |
| 2026-05-07 07:37 | 38.33061 | 121.94986 | 36992 ft | 578 kts | 107° |
| 2026-05-07 07:38 | 38.31356 | 122.04990 | 36990 ft | 578 kts | 107° |
| 2026-05-07 07:38 | 38.29643 | 122.14983 | 36986 ft | 577 kts | 107° |
| 2026-05-07 07:39 | 38.27927 | 122.24949 | 36986 ft | 576 kts | 108° |
| 2026-05-07 07:39 | 38.26434 | 122.34989 | 36985 ft | 577 kts | 104° |
| 2026-05-07 07:40 | 38.24106 | 122.44517 | 36982 ft | 553 kts | 126° |
| 2026-05-07 07:40 | 38.19760 | 122.52354 | 36979 ft | 533 kts | 145° |
| 2026-05-07 07:41 | 38.14455 | 122.58855 | 36970 ft | 535 kts | 146° |
| 2026-05-07 07:41 | 38.09215 | 122.65632 | 36973 ft | 537 kts | 144° |
| 2026-05-07 07:42 | 38.04054 | 122.72373 | 36960 ft | 528 kts | 145° |
| 2026-05-07 07:42 | 37.98935 | 122.79021 | 36957 ft | 526 kts | 145° |
| 2026-05-07 07:43 | 37.93817 | 122.85639 | 36958 ft | 525 kts | 145° |
| 2026-05-07 07:43 | 37.88703 | 122.92244 | 36958 ft | 525 kts | 145° |
| 2026-05-07 07:44 | 37.83584 | 122.98844 | 36954 ft | 526 kts | 145° |
| 2026-05-07 07:44 | 37.78455 | 123.05446 | 36969 ft | 526 kts | 145° |
| 2026-05-07 07:45 | 37.73321 | 123.12040 | 36962 ft | 526 kts | 145° |
| 2026-05-07 07:45 | 37.68184 | 123.18625 | 36964 ft | 526 kts | 145° |
| 2026-05-07 07:46 | 37.63880 | 123.24134 | 36957 ft | 526 kts | 145° |
| 2026-05-07 07:46 | 37.58740 | 123.30697 | 36955 ft | 525 kts | 145° |
| 2026-05-07 07:47 | 37.53917 | 123.37732 | 36954 ft | 537 kts | 136° |
| 2026-05-07 07:47 | 37.49505 | 123.45311 | 36951 ft | 535 kts | 136° |
| 2026-05-07 07:48 | 37.45075 | 123.52825 | 36943 ft | 533 kts | 136° |
| 2026-05-07 07:48 | 37.40623 | 123.60276 | 36946 ft | 532 kts | 136° |
| 2026-05-07 07:49 | 37.36195 | 123.67653 | 36949 ft | 531 kts | 136° |
| 2026-05-07 07:49 | 37.31745 | 123.75059 | 36946 ft | 530 kts | 136° |
| 2026-05-07 07:50 | 37.27302 | 123.82444 | 36942 ft | 530 kts | 136° |
| 2026-05-07 07:50 | 37.22857 | 123.89817 | 36946 ft | 530 kts | 136° |
| 2026-05-07 07:51 | 37.18659 | 123.97439 | 36938 ft | 543 kts | 123° |
| 2026-05-07 07:51 | 37.17352 | 124.01938 | 36957 ft | 556 kts | 109° |
| 2026-05-07 07:51 | 37.16757 | 124.06766 | 36945 ft | 565 kts | 95° |
| 2026-05-07 07:52 | 37.17280 | 124.16632 | 36944 ft | 569 kts | 88° |
| 2026-05-07 07:52 | 37.17701 | 124.26535 | 36945 ft | 569 kts | 91° |
| 2026-05-07 07:53 | 37.17889 | 124.36465 | 36938 ft | 570 kts | 91° |
| 2026-05-07 07:53 | 37.18106 | 124.46400 | 36931 ft | 570 kts | 91° |
| 2026-05-07 07:54 | 37.18337 | 124.56392 | 36928 ft | 569 kts | 91° |
| 2026-05-07 07:54 | 37.18553 | 124.66243 | 36930 ft | 568 kts | 91° |
| 2026-05-07 07:55 | 37.18760 | 124.76189 | 36928 ft | 566 kts | 92° |
| 2026-05-07 07:55 | 37.18958 | 124.86049 | 36925 ft | 565 kts | 92° |
| 2026-05-07 07:56 | 37.19158 | 124.95890 | 36921 ft | 564 kts | 92° |
| 2026-05-07 07:56 | 37.19353 | 125.05717 | 36921 ft | 563 kts | 92° |
| 2026-05-07 07:57 | 37.19538 | 125.15529 | 36919 ft | 562 kts | 92° |
| 2026-05-07 07:57 | 37.19713 | 125.25337 | 36916 ft | 562 kts | 92° |
| 2026-05-07 07:58 | 37.19881 | 125.35135 | 36910 ft | 562 kts | 92° |
| 2026-05-07 07:58 | 37.20042 | 125.44943 | 36913 ft | 562 kts | 92° |
| 2026-05-07 07:59 | 37.20189 | 125.54738 | 36905 ft | 562 kts | 92° |
| 2026-05-07 07:59 | 37.20314 | 125.64531 | 36915 ft | 561 kts | 93° |
| 2026-05-07 08:00 | 37.20433 | 125.74322 | 36906 ft | 561 kts | 93° |
| 2026-05-07 08:00 | 37.20548 | 125.84105 | 36901 ft | 561 kts | 93° |
| 2026-05-07 08:01 | 37.20655 | 125.93885 | 36909 ft | 560 kts | 93° |
| 2026-05-07 08:01 | 37.20755 | 126.03664 | 36914 ft | 560 kts | 93° |
| 2026-05-07 08:02 | 37.20846 | 126.13424 | 36920 ft | 559 kts | 94° |
| 2026-05-07 08:02 | 37.20929 | 126.23180 | 36912 ft | 559 kts | 94° |
| 2026-05-07 08:03 | 37.21005 | 126.32931 | 36908 ft | 559 kts | 94° |
| 2026-05-07 08:03 | 37.21073 | 126.42670 | 36915 ft | 559 kts | 94° |
| 2026-05-07 08:04 | 37.21135 | 126.52421 | 36904 ft | 559 kts | 94° |
| 2026-05-07 08:04 | 37.21195 | 126.62181 | 36896 ft | 559 kts | 94° |
| 2026-05-07 08:05 | 37.21247 | 126.71932 | 36889 ft | 560 kts | 94° |
| 2026-05-07 08:05 | 37.21293 | 126.81690 | 36895 ft | 559 kts | 94° |
| 2026-05-07 08:06 | 37.21367 | 126.91429 | 36892 ft | 558 kts | 90° |
| 2026-05-07 08:06 | 37.21930 | 126.96251 | 36889 ft | 563 kts | 75° |
| 2026-05-07 08:06 | 37.23292 | 127.00859 | 36908 ft | 563 kts | 63° |
| 2026-05-07 08:06 | 37.25277 | 127.05083 | 36905 ft | 560 kts | 50° |
| 2026-05-07 08:07 | 37.27814 | 127.08729 | 36911 ft | 553 kts | 41° |
| 2026-05-07 08:07 | 37.33106 | 127.15805 | 36908 ft | 558 kts | 44° |
| 2026-05-07 08:08 | 37.38302 | 127.23114 | 36908 ft | 563 kts | 45° |
| 2026-05-07 08:08 | 37.43502 | 127.30514 | 36905 ft | 566 kts | 45° |
| 2026-05-07 08:09 | 37.47952 | 127.38700 | 36880 ft | 571 kts | 64° |
| 2026-05-07 08:09 | 37.50563 | 127.48111 | 36895 ft | 570 kts | 82° |
| 2026-05-07 08:10 | 37.51938 | 127.57932 | 36888 ft | 570 kts | 81° |
| 2026-05-07 08:10 | 37.53499 | 127.67721 | 36878 ft | 570 kts | 81° |
| 2026-05-07 08:11 | 37.55072 | 127.77498 | 36894 ft | 568 kts | 81° |
| 2026-05-07 08:11 | 37.56608 | 127.87262 | 36866 ft | 567 kts | 81° |
| 2026-05-07 08:12 | 37.58129 | 127.96992 | 36876 ft | 566 kts | 81° |
| 2026-05-07 08:12 | 37.59648 | 128.06723 | 36873 ft | 565 kts | 81° |
| 2026-05-07 08:13 | 37.61157 | 128.16442 | 36868 ft | 564 kts | 81° |
| 2026-05-07 08:13 | 37.62660 | 128.26144 | 36869 ft | 564 kts | 81° |
| 2026-05-07 08:14 | 37.64162 | 128.35872 | 36861 ft | 564 kts | 81° |
| 2026-05-07 08:14 | 37.65648 | 128.45577 | 36857 ft | 563 kts | 81° |
| 2026-05-07 08:15 | 37.67128 | 128.55278 | 36841 ft | 563 kts | 81° |
| 2026-05-07 08:15 | 37.68580 | 128.64976 | 36844 ft | 562 kts | 82° |
| 2026-05-07 08:16 | 37.68879 | 128.74654 | 36840 ft | 545 kts | 106° |
| 2026-05-07 08:16 | 37.67950 | 128.79248 | 36826 ft | 538 kts | 117° |
| 2026-05-07 08:16 | 37.66441 | 128.83521 | 36817 ft | 525 kts | 130° |
| 2026-05-07 08:17 | 37.62535 | 128.91204 | 36813 ft | 523 kts | 130° |
| 2026-05-07 08:17 | 37.58702 | 128.99072 | 36839 ft | 530 kts | 129° |
| 2026-05-07 08:18 | 37.54877 | 129.07065 | 36813 ft | 533 kts | 129° |
| 2026-05-07 08:18 | 37.51040 | 129.15057 | 36815 ft | 534 kts | 129° |
| 2026-05-07 08:19 | 37.47177 | 129.23055 | 36809 ft | 534 kts | 130° |
| 2026-05-07 08:19 | 37.43320 | 129.31014 | 36803 ft | 532 kts | 129° |
| 2026-05-07 08:20 | 37.40124 | 129.37610 | 36799 ft | 530 kts | 129° |
| 2026-05-07 08:20 | 37.36292 | 129.45512 | 36798 ft | 528 kts | 130° |
| 2026-05-07 08:21 | 37.32472 | 129.53369 | 36795 ft | 526 kts | 130° |
| 2026-05-07 08:21 | 37.28657 | 129.61194 | 36790 ft | 525 kts | 130° |
| 2026-05-07 08:22 | 37.24842 | 129.69003 | 36798 ft | 524 kts | 130° |
| 2026-05-07 08:22 | 37.21029 | 129.76790 | 36799 ft | 524 kts | 129° |
| 2026-05-07 08:23 | 37.17213 | 129.84567 | 36799 ft | 524 kts | 129° |
| 2026-05-07 08:23 | 37.13383 | 129.92330 | 36803 ft | 524 kts | 130° |
| 2026-05-07 08:24 | 37.09541 | 130.00080 | 36805 ft | 524 kts | 129° |
| 2026-05-07 08:24 | 37.05696 | 130.07826 | 36813 ft | 524 kts | 129° |
| 2026-05-07 08:25 | 37.01845 | 130.15573 | 36806 ft | 524 kts | 129° |
| 2026-05-07 08:25 | 36.97954 | 130.23382 | 36808 ft | 524 kts | 129° |
| 2026-05-07 08:26 | 36.92193 | 130.34911 | 36817 ft | 524 kts | 129° |
| 2026-05-07 08:26 | 36.88329 | 130.42619 | 36818 ft | 523 kts | 129° |
| 2026-05-07 08:27 | 36.84463 | 130.50317 | 36826 ft | 523 kts | 129° |
| 2026-05-07 08:27 | 36.80593 | 130.58005 | 36830 ft | 522 kts | 129° |
| 2026-05-07 08:28 | 36.76723 | 130.65677 | 36833 ft | 522 kts | 129° |
| 2026-05-07 08:28 | 36.72854 | 130.73323 | 36832 ft | 521 kts | 129° |
| 2026-05-07 08:29 | 36.68965 | 130.80985 | 36837 ft | 520 kts | 129° |
| 2026-05-07 08:29 | 36.65089 | 130.88610 | 36842 ft | 519 kts | 129° |
| 2026-05-07 08:30 | 36.61220 | 130.96206 | 36851 ft | 519 kts | 129° |
| 2026-05-07 08:30 | 36.57352 | 131.03783 | 36848 ft | 518 kts | 129° |
| 2026-05-07 08:31 | 36.53479 | 131.11354 | 36851 ft | 517 kts | 129° |
| 2026-05-07 08:31 | 36.49617 | 131.18886 | 36854 ft | 516 kts | 129° |
| 2026-05-07 08:32 | 36.45757 | 131.26397 | 36855 ft | 516 kts | 129° |
| 2026-05-07 08:32 | 36.41900 | 131.33890 | 36859 ft | 515 kts | 129° |
| 2026-05-07 08:33 | 36.38449 | 131.41702 | 36861 ft | 523 kts | 114° |
| 2026-05-07 08:33 | 36.36877 | 131.50587 | 36872 ft | 533 kts | 96° |
| 2026-05-07 08:34 | 36.36685 | 131.59784 | 36870 ft | 534 kts | 94° |
| 2026-05-07 08:34 | 36.36487 | 131.68995 | 36873 ft | 535 kts | 95° |
| 2026-05-07 08:35 | 36.36217 | 131.78222 | 36878 ft | 535 kts | 95° |
| 2026-05-07 08:35 | 36.35911 | 131.87445 | 36874 ft | 535 kts | 95° |
| 2026-05-07 08:36 | 36.35595 | 131.96716 | 36877 ft | 534 kts | 95° |
| 2026-05-07 08:36 | 36.35281 | 132.05860 | 36876 ft | 534 kts | 95° |
| 2026-05-07 08:37 | 36.34961 | 132.15052 | 36881 ft | 533 kts | 95° |
| 2026-05-07 08:37 | 36.34635 | 132.24222 | 36883 ft | 532 kts | 95° |
| 2026-05-07 08:38 | 36.34299 | 132.33441 | 36887 ft | 531 kts | 95° |
| 2026-05-07 08:38 | 36.33959 | 132.42582 | 36886 ft | 530 kts | 96° |
| 2026-05-07 08:39 | 36.33613 | 132.51707 | 36887 ft | 529 kts | 96° |
| 2026-05-07 08:39 | 36.33260 | 132.60818 | 36884 ft | 529 kts | 96° |
| 2026-05-07 08:40 | 36.32901 | 132.69918 | 36887 ft | 528 kts | 96° |
| 2026-05-07 08:40 | 36.32535 | 132.79012 | 36889 ft | 528 kts | 96° |
| 2026-05-07 08:41 | 36.32163 | 132.88097 | 36891 ft | 527 kts | 96° |
| 2026-05-07 08:41 | 36.31785 | 132.97167 | 36891 ft | 526 kts | 96° |
| 2026-05-07 08:42 | 36.31399 | 133.06235 | 36896 ft | 526 kts | 96° |
| 2026-05-07 08:42 | 36.31007 | 133.15290 | 36897 ft | 526 kts | 96° |
| 2026-05-07 08:43 | 36.30610 | 133.24331 | 36907 ft | 526 kts | 96° |
| 2026-05-07 08:43 | 36.30206 | 133.33338 | 36898 ft | 525 kts | 96° |
| 2026-05-07 08:44 | 36.29793 | 133.42388 | 36895 ft | 526 kts | 96° |
| 2026-05-07 08:44 | 36.29375 | 133.51440 | 36901 ft | 526 kts | 97° |
| 2026-05-07 08:45 | 36.28950 | 133.60492 | 36899 ft | 526 kts | 97° |
| 2026-05-07 08:45 | 36.28518 | 133.69534 | 36906 ft | 526 kts | 97° |
| 2026-05-07 08:46 | 36.28075 | 133.78635 | 36905 ft | 525 kts | 97° |
| 2026-05-07 08:46 | 36.27612 | 133.87664 | 36905 ft | 525 kts | 97° |
| 2026-05-07 08:47 | 36.27139 | 133.96690 | 36906 ft | 525 kts | 97° |
| 2026-05-07 08:47 | 36.26667 | 134.05658 | 36911 ft | 524 kts | 97° |
| 2026-05-07 08:48 | 36.26192 | 134.14672 | 36912 ft | 524 kts | 97° |
| 2026-05-07 08:48 | 36.25725 | 134.23682 | 36914 ft | 524 kts | 97° |
| 2026-05-07 08:49 | 36.25251 | 134.32689 | 36910 ft | 524 kts | 97° |
| 2026-05-07 08:49 | 36.24768 | 134.41697 | 36916 ft | 524 kts | 97° |
| 2026-05-07 08:50 | 36.24639 | 134.50734 | 36917 ft | 527 kts | 88° |
| 2026-05-07 08:50 | 36.25774 | 134.59714 | 36930 ft | 529 kts | 79° |
| 2026-05-07 08:51 | 36.27357 | 134.68641 | 36909 ft | 530 kts | 79° |
| 2026-05-07 08:51 | 36.28890 | 134.77570 | 36923 ft | 530 kts | 80° |
| 2026-05-07 08:52 | 36.30386 | 134.86518 | 36919 ft | 530 kts | 80° |
| 2026-05-07 08:52 | 36.31877 | 134.95534 | 36918 ft | 530 kts | 80° |
| 2026-05-07 08:53 | 36.33354 | 135.04497 | 36923 ft | 531 kts | 80° |
| 2026-05-07 08:53 | 36.34820 | 135.13421 | 36914 ft | 531 kts | 80° |
| 2026-05-07 08:54 | 36.36290 | 135.22410 | 36910 ft | 531 kts | 80° |
| 2026-05-07 08:54 | 36.37752 | 135.31399 | 36923 ft | 532 kts | 80° |
| 2026-05-07 08:55 | 36.38974 | 135.38943 | 36920 ft | 532 kts | 80° |
| 2026-05-07 08:55 | 36.40424 | 135.47936 | 36902 ft | 532 kts | 80° |
| 2026-05-07 08:56 | 36.41867 | 135.56935 | 36910 ft | 531 kts | 81° |
| 2026-05-07 08:56 | 36.43301 | 135.65922 | 36909 ft | 530 kts | 81° |
| 2026-05-07 08:57 | 36.44727 | 135.74898 | 36905 ft | 529 kts | 81° |
| 2026-05-07 08:57 | 36.46142 | 135.83858 | 36906 ft | 528 kts | 81° |
| 2026-05-07 08:58 | 36.47547 | 135.92799 | 36902 ft | 527 kts | 81° |
| 2026-05-07 08:58 | 36.48943 | 136.01725 | 36905 ft | 526 kts | 81° |
| 2026-05-07 08:59 | 36.50329 | 136.10636 | 36908 ft | 525 kts | 81° |
| 2026-05-07 08:59 | 36.51709 | 136.19556 | 36910 ft | 525 kts | 81° |
| 2026-05-07 09:00 | 36.53084 | 136.28480 | 36912 ft | 525 kts | 81° |
| 2026-05-07 09:00 | 36.54451 | 136.37408 | 36911 ft | 526 kts | 81° |
| 2026-05-07 09:01 | 36.55813 | 136.46348 | 36908 ft | 526 kts | 81° |
| 2026-05-07 09:01 | 36.57170 | 136.55302 | 36916 ft | 527 kts | 81° |
| 2026-05-07 09:02 | 36.58523 | 136.64279 | 36915 ft | 528 kts | 81° |
| 2026-05-07 09:02 | 36.59872 | 136.73274 | 36916 ft | 529 kts | 81° |
| 2026-05-07 09:03 | 36.61219 | 136.82297 | 36915 ft | 530 kts | 81° |
| 2026-05-07 09:03 | 36.62560 | 136.91339 | 36922 ft | 531 kts | 82° |
| 2026-05-07 09:04 | 36.63885 | 137.00379 | 36914 ft | 531 kts | 82° |
| 2026-05-07 09:04 | 36.65181 | 137.09437 | 36912 ft | 531 kts | 82° |
| 2026-05-07 09:05 | 36.66466 | 137.18500 | 36912 ft | 531 kts | 82° |
| 2026-05-07 09:05 | 36.67747 | 137.27559 | 36912 ft | 531 kts | 82° |
| 2026-05-07 09:06 | 36.69024 | 137.36623 | 36919 ft | 531 kts | 82° |
| 2026-05-07 09:06 | 36.70295 | 137.45689 | 36935 ft | 531 kts | 83° |
| 2026-05-07 09:07 | 36.71558 | 137.54769 | 36952 ft | 532 kts | 82° |
| 2026-05-07 09:07 | 36.72816 | 137.63850 | 36959 ft | 532 kts | 82° |
| 2026-05-07 09:08 | 36.74053 | 137.72827 | 36956 ft | 532 kts | 83° |
| 2026-05-07 09:08 | 36.75298 | 137.81924 | 36975 ft | 531 kts | 83° |
| 2026-05-07 09:09 | 36.76536 | 137.91022 | 36961 ft | 532 kts | 83° |
| 2026-05-07 09:09 | 36.77766 | 138.00121 | 36951 ft | 533 kts | 83° |
| 2026-05-07 09:10 | 36.78992 | 138.09238 | 36946 ft | 533 kts | 83° |
| 2026-05-07 09:10 | 36.80244 | 138.18352 | 36938 ft | 533 kts | 82° |
| 2026-05-07 09:11 | 36.81508 | 138.27456 | 36950 ft | 532 kts | 82° |
| 2026-05-07 09:11 | 36.82749 | 138.36492 | 36941 ft | 531 kts | 82° |
| 2026-05-07 09:12 | 36.83985 | 138.45575 | 36956 ft | 531 kts | 82° |
| 2026-05-07 09:12 | 36.85209 | 138.54665 | 36953 ft | 530 kts | 83° |
| 2026-05-07 09:13 | 36.86406 | 138.63746 | 36958 ft | 529 kts | 83° |
| 2026-05-07 09:13 | 36.87602 | 138.72824 | 36949 ft | 530 kts | 83° |
| 2026-05-07 09:14 | 36.88789 | 138.81902 | 36946 ft | 530 kts | 83° |
| 2026-05-07 09:14 | 36.89976 | 138.91053 | 36944 ft | 537 kts | 83° |
| 2026-05-07 09:15 | 36.91178 | 139.00334 | 36960 ft | 544 kts | 83° |
| 2026-05-07 09:15 | 36.92390 | 139.09726 | 36938 ft | 550 kts | 83° |
| 2026-05-07 09:16 | 36.93624 | 139.19205 | 36951 ft | 553 kts | 83° |
| 2026-05-07 09:16 | 36.94861 | 139.28723 | 36958 ft | 556 kts | 83° |
| 2026-05-07 09:17 | 36.96090 | 139.38261 | 36937 ft | 552 kts | 83° |
| 2026-05-07 09:17 | 36.97295 | 139.47657 | 36927 ft | 544 kts | 83° |
| 2026-05-07 09:18 | 36.98472 | 139.57007 | 36950 ft | 545 kts | 84° |
| 2026-05-07 09:18 | 36.99641 | 139.66392 | 36932 ft | 546 kts | 83° |
| 2026-05-07 09:19 | 37.00078 | 139.75718 | 36921 ft | 531 kts | 105° |
| 2026-05-07 09:19 | 36.98947 | 139.80057 | 36928 ft | 521 kts | 121° |
| 2026-05-07 09:19 | 36.97124 | 139.83917 | 36919 ft | 514 kts | 131° |
| 2026-05-07 09:20 | 36.94757 | 139.87205 | 36892 ft | 502 kts | 144° |
| 2026-05-07 09:20 | 36.92093 | 139.89983 | 36907 ft | 499 kts | 146° |
| 2026-05-07 09:20 | 36.86817 | 139.95473 | 36701 ft | 483 kts | 145° |
| 2026-05-07 09:21 | 36.84271 | 139.98172 | 36161 ft | 479 kts | 144° |
| 2026-05-07 09:21 | 36.81736 | 140.00876 | 35327 ft | 481 kts | 144° |
| 2026-05-07 09:21 | 36.79181 | 140.03611 | 34483 ft | 485 kts | 144° |
| 2026-05-07 09:21 | 36.76633 | 140.06347 | 33986 ft | 480 kts | 144° |
| 2026-05-07 09:22 | 36.74116 | 140.09055 | 33495 ft | 475 kts | 144° |
| 2026-05-07 09:22 | 36.71622 | 140.11736 | 32971 ft | 471 kts | 144° |
| 2026-05-07 09:22 | 36.69151 | 140.14386 | 32460 ft | 467 kts | 144° |
| 2026-05-07 09:22 | 36.66701 | 140.17011 | 32128 ft | 460 kts | 144° |
| 2026-05-07 09:23 | 36.64305 | 140.19578 | 31875 ft | 453 kts | 144° |
| 2026-05-07 09:23 | 36.61905 | 140.22140 | 31630 ft | 455 kts | 144° |
| 2026-05-07 09:23 | 36.59491 | 140.24709 | 31404 ft | 459 kts | 144° |
| 2026-05-07 09:23 | 36.57052 | 140.27304 | 31169 ft | 461 kts | 144° |
| 2026-05-07 09:24 | 36.54621 | 140.29895 | 30920 ft | 459 kts | 144° |
| 2026-05-07 09:24 | 36.52199 | 140.32477 | 30676 ft | 458 kts | 144° |
| 2026-05-07 09:24 | 36.49777 | 140.35054 | 30356 ft | 458 kts | 144° |
| 2026-05-07 09:24 | 36.47367 | 140.37617 | 30045 ft | 455 kts | 144° |
| 2026-05-07 09:25 | 36.44977 | 140.40159 | 29698 ft | 448 kts | 144° |
| 2026-05-07 09:25 | 36.42620 | 140.42664 | 29329 ft | 442 kts | 144° |
| 2026-05-07 09:25 | 36.40297 | 140.45127 | 28973 ft | 438 kts | 144° |
| 2026-05-07 09:25 | 36.37980 | 140.47580 | 28602 ft | 435 kts | 144° |
| 2026-05-07 09:26 | 36.35665 | 140.50027 | 27954 ft | 439 kts | 144° |
| 2026-05-07 09:26 | 36.33334 | 140.52490 | 27276 ft | 441 kts | 144° |
| 2026-05-07 09:26 | 36.31047 | 140.54977 | 26538 ft | 430 kts | 141° |
| 2026-05-07 09:26 | 36.29004 | 140.57622 | 25569 ft | 421 kts | 136° |
| 2026-05-07 09:27 | 36.27085 | 140.60335 | 24639 ft | 412 kts | 135° |
| 2026-05-07 09:27 | 36.25188 | 140.62959 | 23742 ft | 406 kts | 136° |
| 2026-05-07 09:27 | 36.21371 | 140.68035 | 21768 ft | 401 kts | 137° |
| 2026-05-07 09:28 | 36.19470 | 140.70548 | 20793 ft | 398 kts | 137° |
| 2026-05-07 09:28 | 36.17582 | 140.73047 | 19831 ft | 393 kts | 137° |
| 2026-05-07 09:28 | 36.15723 | 140.75510 | 18908 ft | 389 kts | 137° |
| 2026-05-07 09:28 | 36.13903 | 140.77917 | 17996 ft | 384 kts | 137° |
| 2026-05-07 09:29 | 36.12022 | 140.80226 | 16967 ft | 375 kts | 146° |
| 2026-05-07 09:29 | 36.09893 | 140.81983 | 15992 ft | 362 kts | 155° |
| 2026-05-07 09:29 | 36.07708 | 140.83464 | 15034 ft | 353 kts | 157° |
| 2026-05-07 09:29 | 36.06283 | 140.84416 | 14421 ft | 348 kts | 156° |
| 2026-05-07 09:30 | 36.04192 | 140.85878 | 13490 ft | 341 kts | 155° |
| 2026-05-07 09:30 | 36.01463 | 140.87681 | 12124 ft | 327 kts | 167° |
| 2026-05-07 09:30 | 35.99962 | 140.87970 | 11598 ft | 322 kts | 188° |
| 2026-05-07 09:30 | 35.97874 | 140.87199 | 11184 ft | 311 kts | 212° |
| 2026-05-07 09:31 | 35.96199 | 140.85593 | 10682 ft | 309 kts | 227° |
| 2026-05-07 09:31 | 35.94916 | 140.83466 | 10197 ft | 310 kts | 242° |
| 2026-05-07 09:31 | 35.94111 | 140.80997 | 9702 ft | 311 kts | 254° |
| 2026-05-07 09:31 | 35.93901 | 140.78341 | 9153 ft | 314 kts | 275° |
| 2026-05-07 09:32 | 35.94399 | 140.75751 | 8682 ft | 306 kts | 283° |
| 2026-05-07 09:32 | 35.94938 | 140.73230 | 8363 ft | 301 kts | 281° |
| 2026-05-07 09:32 | 35.95416 | 140.70747 | 8032 ft | 300 kts | 281° |
| 2026-05-07 09:32 | 35.95886 | 140.68232 | 7726 ft | 300 kts | 281° |
| 2026-05-07 09:33 | 35.96352 | 140.65719 | 7407 ft | 299 kts | 281° |
| 2026-05-07 09:33 | 35.96816 | 140.63213 | 7102 ft | 299 kts | 281° |
| 2026-05-07 09:33 | 35.97280 | 140.60696 | 6794 ft | 300 kts | 281° |
| 2026-05-07 09:33 | 35.97743 | 140.58180 | 6480 ft | 300 kts | 281° |
| 2026-05-07 09:34 | 35.98213 | 140.55682 | 6198 ft | 295 kts | 284° |
| 2026-05-07 09:34 | 35.99045 | 140.53449 | 5953 ft | 285 kts | 304° |
| 2026-05-07 09:34 | 36.00260 | 140.51631 | 5731 ft | 269 kts | 307° |
| 2026-05-07 09:34 | 36.01405 | 140.49819 | 5487 ft | 266 kts | 305° |
| 2026-05-07 09:35 | 36.02520 | 140.47978 | 5232 ft | 263 kts | 304° |
| 2026-05-07 09:35 | 36.03362 | 140.46051 | 4940 ft | 251 kts | 279° |
| 2026-05-07 09:35 | 36.03376 | 140.43946 | 4760 ft | 241 kts | 264° |
| 2026-05-07 09:35 | 36.03301 | 140.41916 | 4589 ft | 239 kts | 268° |
| 2026-05-07 09:36 | 36.03312 | 140.39850 | 4394 ft | 234 kts | 269° |
| 2026-05-07 09:36 | 36.03340 | 140.37871 | 4207 ft | 232 kts | 269° |
| 2026-05-07 09:36 | 36.03372 | 140.35885 | 4035 ft | 229 kts | 269° |
| 2026-05-07 09:36 | 36.03408 | 140.33942 | 3941 ft | 222 kts | 269° |
| 2026-05-07 09:37 | 36.03445 | 140.32079 | 3873 ft | 209 kts | 269° |
| 2026-05-07 09:37 | 36.03421 | 140.30371 | 3879 ft | 186 kts | 254° |
| 2026-05-07 09:37 | 36.02759 | 140.29072 | 3915 ft | 185 kts | 226° |
| 2026-05-07 09:37 | 36.01923 | 140.27818 | 3883 ft | 186 kts | 234° |
| 2026-05-07 09:38 | 36.01190 | 140.26509 | 3873 ft | 184 kts | 234° |
| 2026-05-07 09:38 | 36.00480 | 140.25233 | 3874 ft | 182 kts | 234° |
| 2026-05-07 09:38 | 35.99753 | 140.23926 | 3875 ft | 183 kts | 234° |
| 2026-05-07 09:38 | 35.98897 | 140.22849 | 3859 ft | 179 kts | 205° |
| 2026-05-07 09:39 | 35.97665 | 140.22558 | 3905 ft | 185 kts | 185° |
| 2026-05-07 09:39 | 35.96373 | 140.22733 | 3870 ft | 191 kts | 159° |
| 2026-05-07 09:39 | 35.95294 | 140.23689 | 3893 ft | 191 kts | 144° |
| 2026-05-07 09:39 | 35.94197 | 140.24630 | 3863 ft | 194 kts | 152° |
| 2026-05-07 09:40 | 35.93041 | 140.25485 | 3602 ft | 193 kts | 153° |
| 2026-05-07 09:40 | 35.91899 | 140.26319 | 3342 ft | 187 kts | 153° |
| 2026-05-07 09:40 | 35.90800 | 140.27118 | 3102 ft | 179 kts | 154° |
| 2026-05-07 09:40 | 35.89755 | 140.27877 | 2878 ft | 170 kts | 154° |
| 2026-05-07 09:41 | 35.88762 | 140.28600 | 2659 ft | 161 kts | 154° |
| 2026-05-07 09:41 | 35.87809 | 140.29292 | 2471 ft | 160 kts | 155° |
| 2026-05-07 09:41 | 35.86841 | 140.29994 | 2283 ft | 162 kts | 154° |
| 2026-05-07 09:41 | 35.85872 | 140.30698 | 2058 ft | 161 kts | 154° |
| 2026-05-07 09:42 | 35.84916 | 140.31394 | 1836 ft | 158 kts | 155° |
| 2026-05-07 09:42 | 35.84003 | 140.32059 | 1627 ft | 147 kts | 155° |
| 2026-05-07 09:42 | 35.83145 | 140.32680 | 1437 ft | 140 kts | 154° |
| 2026-05-07 09:42 | 35.82295 | 140.33297 | 1284 ft | 144 kts | 154° |
| 2026-05-07 09:43 | 35.81426 | 140.33927 | 1065 ft | 145 kts | 153° |
| 2026-05-07 09:43 | 35.80569 | 140.34549 | 889 ft | 144 kts | 152° |
| 2026-05-07 09:43 | 35.79708 | 140.35174 | 694 ft | 144 kts | 150° |
| 2026-05-07 09:43 | 35.78855 | 140.35801 | 480 ft | 141 kts | 149° |
| 2026-05-07 09:44 | 35.78016 | 140.36405 | 300 ft | 139 kts | 148° |
| 2026-05-07 09:44 | 35.77184 | 140.37017 | 166 ft | 140 kts | 149° |
| 2026-05-07 09:44 | 35.76386 | 140.37597 | 148 ft | 119 kts | 150° |
| 2026-05-07 09:44 | 35.75808 | 140.38010 | 153 ft | 76 kts | 148° |
| 2026-05-07 09:45 | 35.75463 | 140.38305 | 151 ft | 56 kts | 137° |
| 2026-05-07 09:45 | 35.75273 | 140.38574 | 151 ft | 23 kts | 113° |
| 2026-05-07 09:45 | 35.75335 | 140.38676 | 151 ft | 19 kts | 22° |
| 2026-05-07 09:45 | 35.75501 | 140.38737 | 148 ft | 26 kts | 338° |
| 2026-05-07 09:46 | 35.75703 | 140.38582 | 150 ft | 37 kts | 330° |
| 2026-05-07 09:46 | 35.75836 | 140.38489 | 151 ft | 5 kts | 330° |
| 2026-05-07 09:46 | 35.75901 | 140.38441 | 151 ft | 14 kts | 330° |
| 2026-05-07 09:46 | 35.75993 | 140.38377 | 149 ft | 14 kts | 338° |
| 2026-05-07 09:47 | 35.76062 | 140.38436 | 147 ft | 8 kts | 58° |
| 2026-05-07 09:47 | 35.76065 | 140.38443 | 147 ft | 0 kts | 58° |